Observation data for Wall on 06/25/2019      Previous  Date  Next       Current Mesonet Observations  Soil Data  Daily Summary Page  Observations in Plain Language
KWA1 250500Z 26010KT 24/16 A2995 RMK A01 T02380155  RH  060%=      5-min Rain = 0
KWA1 250501Z 27008KT 24/15 A2994 RMK A01 T02360153  RH  060%=      5-min Rain = 0
KWA1 250502Z 26006KT 24/16 A2994 RMK A01 T02350157  RH  061%=      5-min Rain = 0
KWA1 250503Z 23008KT 23/15 A2995 RMK A01 T02340150  RH  059%=      5-min Rain = 0
KWA1 250504Z 24005KT 24/14 A2995 RMK A01 T02400142  RH  054%=      5-min Rain = 0
KWA1 250505Z 26003KT 24/15 A2995 RMK A01 T02440152  RH  056%=      5-min Rain = 0
KWA1 250506Z 25004KT 24/15 A2995 RMK A01 T02430148  RH  055%=      5-min Rain = 0
KWA1 250507Z 27008KT 24/15 A2996 RMK A01 T02420150  RH  056%=      5-min Rain = 0
KWA1 250508Z 27012KT 24/15 A2996 RMK A01 T02410150  RH  057%=      5-min Rain = 0
KWA1 250509Z 28013KT 24/15 A2996 RMK A01 T02410148  RH  056%=      5-min Rain = 0
KWA1 250510Z 28011KT 24/15 A2996 RMK A01 T02410149  RH  057%=      5-min Rain = 0
KWA1 250511Z 28011KT 24/15 A2996 RMK A01 T02400150  RH  057%=      5-min Rain = 0
KWA1 250512Z 27011KT 24/15 A2997 RMK A01 T02380151  RH  058%=      5-min Rain = 0
KWA1 250513Z 26010KT 24/15 A2997 RMK A01 T02380152  RH  059%=      5-min Rain = 0
KWA1 250514Z 25009KT 24/15 A2996 RMK A01 T02360152  RH  059%=      5-min Rain = 0
KWA1 250515Z 24007KT 24/15 A2996 RMK A01 T02360152  RH  059%=      5-min Rain = 0
KWA1 250516Z 24008KT 24/15 A2995 RMK A01 T02360153  RH  059%=      5-min Rain = 0
KWA1 250517Z 22010G15KT 24/15 A2995 RMK A01 T02360153  RH  060%=      5-min Rain = 0
KWA1 250518Z 22014KT 24/15 A2995 RMK A01 T02360151  RH  059%=      5-min Rain = 0
KWA1 250519Z 21014KT 24/15 A2995 RMK A01 T02400151  RH  057%=      5-min Rain = 0
KWA1 250520Z 21015KT 24/15 A2995 RMK A01 T02390154  RH  059%=      5-min Rain = 0
KWA1 250521Z 21014KT 24/16 A2995 RMK A01 T02370155  RH  060%=      5-min Rain = 0
KWA1 250522Z 21013KT 24/15 A2995 RMK A01 T02350153  RH  060%=      5-min Rain = 0
KWA1 250523Z 20013KT 24/15 A2994 RMK A01 T02360154  RH  060%=      5-min Rain = 0
KWA1 250524Z 20013KT 23/16 A2994 RMK A01 T02340156  RH  061%=      5-min Rain = 0
KWA1 250525Z 19015KT 23/15 A2993 RMK A01 T02330154  RH  061%=      5-min Rain = 0
KWA1 250526Z 18018KT 24/16 A2993 RMK A01 T02350157  RH  061%=      5-min Rain = 0
KWA1 250527Z 16015KT 24/16 A2992 RMK A01 T02360158  RH  062%=      5-min Rain = 0
KWA1 250528Z 16014KT 24/16 A2992 RMK A01 T02360157  RH  061%=      5-min Rain = 0
KWA1 250529Z 15014KT 24/16 A2991 RMK A01 T02350159  RH  063%=      5-min Rain = 0
KWA1 250530Z 15015KT 23/16 A2991 RMK A01 T02330160  RH  064%=      5-min Rain = 0
KWA1 250531Z 14016KT 23/16 A2991 RMK A01 T02320164  RH  066%=      5-min Rain = 0
KWA1 250532Z 14016KT 23/17 A2991 RMK A01 T02310165  RH  066%=      5-min Rain = 0
KWA1 250533Z 14015KT 23/17 A2991 RMK A01 T02310165  RH  066%=      5-min Rain = 0
KWA1 250534Z 14014KT 23/16 A2992 RMK A01 T02320164  RH  065%=      5-min Rain = 0
KWA1 250535Z 15014KT 23/16 A2991 RMK A01 T02320163  RH  065%=      5-min Rain = 0
KWA1 250536Z 15012KT 23/17 A2991 RMK A01 T02330166  RH  066%=      5-min Rain = 0
KWA1 250537Z 15011KT 23/17 A2991 RMK A01 T02320168  RH  067%=      5-min Rain = 0
KWA1 250538Z 16011KT 23/17 A2991 RMK A01 T02290169  RH  069%=      5-min Rain = 0
KWA1 250539Z 16010KT 23/17 A2991 RMK A01 T02270170  RH  070%=      5-min Rain = 0
KWA1 250540Z 16010KT 23/17 A2991 RMK A01 T02260170  RH  071%=      5-min Rain = 0
KWA1 250541Z 15010KT 23/17 A2991 RMK A01 T02250171  RH  072%=      5-min Rain = 0
KWA1 250542Z 13010KT 22/17 A2991 RMK A01 T02240171  RH  072%=      5-min Rain = 0
KWA1 250543Z 12011KT 22/17 A2991 RMK A01 T02240171  RH  072%=      5-min Rain = 0
KWA1 250544Z 12011KT 22/17 A2991 RMK A01 T02240171  RH  072%=      5-min Rain = 0
KWA1 250545Z 11010KT 22/17 A2991 RMK A01 T02240172  RH  072%=      5-min Rain = 0
KWA1 250546Z 11010KT 22/17 A299 RMK A01 T02230172  RH  073%=      5-min Rain = 0
KWA1 250547Z 10010KT 22/17 A299 RMK A01 T02230171  RH  072%=      5-min Rain = 0
KWA1 250548Z 11010KT 22/17 A299 RMK A01 T02240172  RH  072%=      5-min Rain = 0
KWA1 250549Z 12012KT 22/17 A299 RMK A01 T02240172  RH  072%=      5-min Rain = 0
KWA1 250550Z 13013KT 23/17 A2989 RMK A01 T02250174  RH  073%=      5-min Rain = 0
KWA1 250551Z 13013KT 22/18 A2989 RMK A01 T02240176  RH  074%=      5-min Rain = 0
KWA1 250552Z 13013KT 22/18 A2989 RMK A01 T02230177  RH  075%=      5-min Rain = 0
KWA1 250553Z 13012KT 22/18 A2989 RMK A01 T02220178  RH  076%=      5-min Rain = 0
KWA1 250554Z 12013KT 22/18 A2989 RMK A01 T02210179  RH  077%=      5-min Rain = 0
KWA1 250555Z 12013KT 22/18 A2989 RMK A01 T02200180  RH  078%=      5-min Rain = 0
KWA1 250556Z 12012KT 22/18 A2989 RMK A01 T02190181  RH  079%=      5-min Rain = 0
KWA1 250557Z 12013KT 22/18 A2988 RMK A01 T02180182  RH  080%=      5-min Rain = 0
KWA1 250558Z 12014KT 22/18 A2988 RMK A01 T02170182  RH  080%=      5-min Rain = 0
KWA1 250559Z 12015KT 22/18 A2988 RMK A01 T02170183  RH  081%=      5-min Rain = 0
KWA1 250600Z 13013KT 22/18 A2988 RMK A01 T02170184  RH  081%=      5-min Rain = 0
KWA1 250601Z 12012KT 22/19 A2988 RMK A01 T02170186  RH  082%=      5-min Rain = 0
KWA1 250602Z 13013KT 22/19 A2988 RMK A01 T02160185  RH  083%=      5-min Rain = 0
KWA1 250603Z 12015KT 22/19 A2988 RMK A01 T02160185  RH  082%=      5-min Rain = 0
KWA1 250604Z 13013KT 22/19 A2989 RMK A01 T02170185  RH  082%=      5-min Rain = 0
KWA1 250605Z 13013KT 22/19 A2989 RMK A01 T02170186  RH  082%=      5-min Rain = 0
KWA1 250606Z 13013KT 22/19 A2989 RMK A01 T02180186  RH  082%=      5-min Rain = 0
KWA1 250607Z 13011KT 22/19 A2989 RMK A01 T02180186  RH  082%=      5-min Rain = 0
KWA1 250608Z 13012KT 22/19 A2989 RMK A01 T02180186  RH  082%=      5-min Rain = 0
KWA1 250609Z 14011KT 22/19 A299 RMK A01 T02180186  RH  082%=      5-min Rain = 0
KWA1 250610Z 13012KT 22/19 A299 RMK A01 T02180186  RH  082%=      5-min Rain = 0
KWA1 250611Z 13011KT 22/19 A299 RMK A01 T02190186  RH  081%=      5-min Rain = 0
KWA1 250612Z 13010KT 22/19 A299 RMK A01 T02200186  RH  081%=      5-min Rain = 0
KWA1 250613Z 13010KT 22/19 A299 RMK A01 T02200187  RH  081%=      5-min Rain = 0
KWA1 250614Z 12009KT 22/19 A299 RMK A01 T02190187  RH  082%=      5-min Rain = 0
KWA1 250615Z 13009KT 22/19 A299 RMK A01 T02180187  RH  083%=      5-min Rain = 0
KWA1 250616Z 13007KT 22/19 A299 RMK A01 T02170187  RH  083%=      5-min Rain = 0
KWA1 250617Z 13008KT 22/19 A2991 RMK A01 T02170187  RH  083%=      5-min Rain = 0
KWA1 250618Z 13008KT 22/19 A2991 RMK A01 T02160187  RH  083%=      5-min Rain = 0
KWA1 250619Z 13008KT 22/19 A2991 RMK A01 T02170186  RH  083%=      5-min Rain = 0
KWA1 250620Z 13008KT 22/19 A2991 RMK A01 T02170185  RH  082%=      5-min Rain = 0
KWA1 250621Z 13008KT 22/19 A2991 RMK A01 T02170185  RH  082%=      5-min Rain = 0
KWA1 250622Z 12006KT 22/19 A2991 RMK A01 T02180186  RH  082%=      5-min Rain = 0
KWA1 250623Z 11004KT 22/19 A2992 RMK A01 T02170186  RH  082%=      5-min Rain = 0
KWA1 250624Z 10004KT 22/19 A2992 RMK A01 T02160186  RH  083%=      5-min Rain = 0
KWA1 250625Z 10004KT 22/19 A2992 RMK A01 T02160187  RH  083%=      5-min Rain = 0
KWA1 250626Z 07002KT 22/19 A2992 RMK A01 T02160188  RH  084%=      5-min Rain = 0
KWA1 250627Z 06002KT 22/19 A2992 RMK A01 T02150187  RH  084%=      5-min Rain = 0
KWA1 250628Z 01002KT 21/19 A2993 RMK A01 T02140188  RH  085%=      5-min Rain = 0
KWA1 250629Z 32002KT 21/19 A2993 RMK A01 T02130188  RH  086%=      5-min Rain = 0
KWA1 250630Z 30004KT 21/19 A2993 RMK A01 T02110187  RH  086%=      5-min Rain = 0
KWA1 250631Z 29006KT 21/19 A2994 RMK A01 T02100187  RH  087%=      5-min Rain = 0
KWA1 250632Z 30010KT 21/19 A2994 RMK A01 T02090186  RH  086%=      5-min Rain = 0
KWA1 250633Z 31010KT 21/19 A2994 RMK A01 T02090185  RH  086%=      5-min Rain = 0
KWA1 250634Z 31011KT 21/19 A2994 RMK A01 T02080186  RH  087%=      5-min Rain = 0
KWA1 250635Z 32013KT 21/19 A2994 RMK A01 T02080186  RH  087%=      5-min Rain = 0
KWA1 250636Z 32011KT 21/19 A2994 RMK A01 T02080185  RH  086%=      5-min Rain = 0
KWA1 250637Z 31011KT 21/19 A2994 RMK A01 T02100185  RH  086%=      5-min Rain = 0
KWA1 250638Z 30012KT 21/18 A2994 RMK A01 T02110183  RH  084%=      5-min Rain = 0
KWA1 250639Z 29010KT 21/18 A2994 RMK A01 T02120180  RH  082%=      5-min Rain = 0
KWA1 250640Z 28009KT 21/18 A2994 RMK A01 T02140177  RH  079%=      5-min Rain = 0
KWA1 250641Z 24008KT 22/18 A2995 RMK A01 T02190175  RH  076%=      5-min Rain = 0
KWA1 250642Z 27004G10KT 22/17 A2995 RMK A01 T02230172  RH  073%=      5-min Rain = 0
KWA1 250643Z 26008KT 23/17 A2995 RMK A01 T02260174  RH  072%=      5-min Rain = 0
KWA1 250644Z 27011KT 23/17 A2995 RMK A01 T02280174  RH  071%=      5-min Rain = 0
KWA1 250645Z 28009KT 23/18 A2995 RMK A01 T02290175  RH  072%=      5-min Rain = 0
KWA1 250646Z 27011KT 23/18 A2995 RMK A01 T02270175  RH  072%=      5-min Rain = 0
KWA1 250647Z 30010KT 23/18 A2995 RMK A01 T02250177  RH  074%=      5-min Rain = 0
KWA1 250648Z 31009KT 22/18 A2996 RMK A01 T02200179  RH  078%=      5-min Rain = 0
KWA1 250649Z 33008KT 22/18 A2996 RMK A01 T02170179  RH  079%=      5-min Rain = 0
KWA1 250650Z 34006KT 22/18 A2996 RMK A01 T02160179  RH  079%=      5-min Rain = 0
KWA1 250651Z 34009KT 22/18 A2995 RMK A01 T02160182  RH  081%=      5-min Rain = 0
KWA1 250652Z 33008KT 21/18 A2995 RMK A01 T02140183  RH  082%=      5-min Rain = 0
KWA1 250653Z 33006KT 21/18 A2995 RMK A01 T02130183  RH  083%=      5-min Rain = 0
KWA1 250654Z 34006KT 21/18 A2995 RMK A01 T02120184  RH  084%=      5-min Rain = 0
KWA1 250655Z 35005KT 21/18 A2995 RMK A01 T02110184  RH  084%=      5-min Rain = 0
KWA1 250656Z 34005KT 21/18 A2995 RMK A01 T02110183  RH  084%=      5-min Rain = 0
KWA1 250657Z 34006KT 21/18 A2995 RMK A01 T02100184  RH  085%=      5-min Rain = 0
KWA1 250658Z 34007KT 21/18 A2995 RMK A01 T02090184  RH  086%=      5-min Rain = 0
KWA1 250659Z 35005KT 21/18 A2995 RMK A01 T02090184  RH  086%=      5-min Rain = 0
KWA1 250700Z 34003KT 21/18 A2995 RMK A01 T02080184  RH  086%=      5-min Rain = 0
KWA1 250701Z 32003KT 21/18 A2996 RMK A01 T02080184  RH  086%=      5-min Rain = 0
KWA1 250702Z 30004KT 21/18 A2996 RMK A01 T02070183  RH  086%=      5-min Rain = 0
KWA1 250703Z 29006KT 21/18 A2995 RMK A01 T02070182  RH  086%=      5-min Rain = 0
KWA1 250704Z 29008KT 21/18 A2995 RMK A01 T02060181  RH  086%=      5-min Rain = 0
KWA1 250705Z 28009KT 21/18 A2995 RMK A01 T02060176  RH  083%=      5-min Rain = 0
KWA1 250706Z 28007KT 21/17 A2995 RMK A01 T02080174  RH  081%=      5-min Rain = 0
KWA1 250707Z 26006KT 21/18 A2995 RMK A01 T02090175  RH  081%=      5-min Rain = 0
KWA1 250708Z 26007KT 21/18 A2995 RMK A01 T02090176  RH  082%=      5-min Rain = 0
KWA1 250709Z 27007KT 21/18 A2995 RMK A01 T02080177  RH  082%=      5-min Rain = 0
KWA1 250710Z 29007KT 21/18 A2995 RMK A01 T02070177  RH  083%=      5-min Rain = 0
KWA1 250711Z 32007KT 21/18 A2995 RMK A01 T02060177  RH  084%=      5-min Rain = 0
KWA1 250712Z 34006KT 21/18 A2995 RMK A01 T02060177  RH  083%=      5-min Rain = 0
KWA1 250713Z 33005KT 21/18 A2995 RMK A01 T02090175  RH  081%=      5-min Rain = 0
KWA1 250714Z 33004KT 21/17 A2995 RMK A01 T02130174  RH  078%=      5-min Rain = 0
KWA1 250715Z 32004KT 22/17 A2995 RMK A01 T02160174  RH  077%=      5-min Rain = 0
KWA1 250716Z 32006KT 22/18 A2995 RMK A01 T02170177  RH  078%=      5-min Rain = 0
KWA1 250717Z 32006KT 22/18 A2995 RMK A01 T02150177  RH  079%=      5-min Rain = 0
KWA1 250718Z 33005KT 21/18 A2995 RMK A01 T02130177  RH  080%=      5-min Rain = 0
KWA1 250719Z 33006KT 21/18 A2995 RMK A01 T02120175  RH  080%=      5-min Rain = 0
KWA1 250720Z 33006KT 21/18 A2995 RMK A01 T02120176  RH  080%=      5-min Rain = 0
KWA1 250721Z 32006KT 21/18 A2995 RMK A01 T02110177  RH  081%=      5-min Rain = 0
KWA1 250722Z 33005KT 21/18 A2995 RMK A01 T02100176  RH  081%=      5-min Rain = 0
KWA1 250723Z 33004KT 21/17 A2995 RMK A01 T02100174  RH  080%=      5-min Rain = 0
KWA1 250724Z 34003KT 21/17 A2995 RMK A01 T02120174  RH  079%=      5-min Rain = 0
KWA1 250725Z 30003KT 21/17 A2995 RMK A01 T02130172  RH  078%=      5-min Rain = 0
KWA1 250726Z 27003KT 22/17 A2994 RMK A01 T02160169  RH  075%=      5-min Rain = 0
KWA1 250727Z 27003KT 22/18 A2994 RMK A01 T02180175  RH  076%=      5-min Rain = 0
KWA1 250728Z 28005KT 22/18 A2994 RMK A01 T02170176  RH  077%=      5-min Rain = 0
KWA1 250729Z 29005KT 22/18 A2994 RMK A01 T02150175  RH  078%=      5-min Rain = 0
KWA1 250730Z 31005KT 21/18 A2994 RMK A01 T02130176  RH  079%=      5-min Rain = 0
KWA1 250731Z 31006KT 21/18 A2994 RMK A01 T02110176  RH  080%=      5-min Rain = 0
KWA1 250732Z 31006KT 21/18 A2994 RMK A01 T02100176  RH  081%=      5-min Rain = 0
KWA1 250733Z 31005KT 21/18 A2994 RMK A01 T02090176  RH  081%=      5-min Rain = 0
KWA1 250734Z 31005KT 21/17 A2994 RMK A01 T02090174  RH  081%=      5-min Rain = 0
KWA1 250735Z 31005KT 21/18 A2994 RMK A01 T02090175  RH  081%=      5-min Rain = 0
KWA1 250736Z 31005KT 21/18 A2994 RMK A01 T02080176  RH  082%=      5-min Rain = 0
KWA1 250737Z 32005KT 21/18 A2994 RMK A01 T02060176  RH  083%=      5-min Rain = 0
KWA1 250738Z 32005KT 21/18 A2994 RMK A01 T02050176  RH  084%=      5-min Rain = 0
KWA1 250739Z 32005KT 20/18 A2993 RMK A01 T02040176  RH  084%=      5-min Rain = 0
KWA1 250740Z 32005KT 20/18 A2993 RMK A01 T02040177  RH  084%=      5-min Rain = 0
KWA1 250741Z 32005KT 20/18 A2993 RMK A01 T02030177  RH  085%=      5-min Rain = 0
KWA1 250742Z 32005KT 20/18 A2994 RMK A01 T02020178  RH  086%=      5-min Rain = 0
KWA1 250743Z 32005KT 20/18 A2994 RMK A01 T02010178  RH  087%=      5-min Rain = 0
KWA1 250744Z 32005KT 20/18 A2994 RMK A01 T02000178  RH  087%=      5-min Rain = 0
KWA1 250745Z 32005KT 20/18 A2994 RMK A01 T01990178  RH  088%=      5-min Rain = 0
KWA1 250746Z 32005KT 20/18 A2994 RMK A01 T01990178  RH  088%=      5-min Rain = 0
KWA1 250747Z 33005KT 20/18 A2994 RMK A01 T01980178  RH  088%=      5-min Rain = 0
KWA1 250748Z 33005KT 20/18 A2994 RMK A01 T01970178  RH  089%=      5-min Rain = 0
KWA1 250749Z 33005KT 20/18 A2994 RMK A01 T01970178  RH  089%=      5-min Rain = 0
KWA1 250750Z 33005KT 20/18 A2994 RMK A01 T01970178  RH  089%=      5-min Rain = 0
KWA1 250751Z 33005KT 20/18 A2993 RMK A01 T01970178  RH  089%=      5-min Rain = 0
KWA1 250752Z 33004KT 20/18 A2993 RMK A01 T01970178  RH  089%=      5-min Rain = 0
KWA1 250753Z 32004KT 20/18 A2993 RMK A01 T01970177  RH  089%=      5-min Rain = 0
KWA1 250754Z 31003KT 20/18 A2993 RMK A01 T01970178  RH  089%=      5-min Rain = 0
KWA1 250755Z 30003KT 20/18 A2993 RMK A01 T01960178  RH  089%=      5-min Rain = 0
KWA1 250756Z 29004KT 20/18 A2993 RMK A01 T01960178  RH  089%=      5-min Rain = 0
KWA1 250757Z 29003KT 20/18 A2993 RMK A01 T01960178  RH  089%=      5-min Rain = 0
KWA1 250758Z 29004KT 20/18 A2993 RMK A01 T01950178  RH  089%=      5-min Rain = 0
KWA1 250759Z 29004KT 20/18 A2993 RMK A01 T01950178  RH  090%=      5-min Rain = 0
KWA1 250800Z 29004KT 20/18 A2993 RMK A01 T01950178  RH  090%=      5-min Rain = 0
KWA1 250801Z 28004KT 19/18 A2993 RMK A01 T01940177  RH  090%=      5-min Rain = 0
KWA1 250802Z 29004KT 19/18 A2993 RMK A01 T01940178  RH  090%=      5-min Rain = 0
KWA1 250803Z 29004KT 19/18 A2993 RMK A01 T01940177  RH  090%=      5-min Rain = 0
KWA1 250804Z 29004KT 20/18 A2993 RMK A01 T01950177  RH  090%=      5-min Rain = 0
KWA1 250805Z 29004KT 19/18 A2993 RMK A01 T01940176  RH  089%=      5-min Rain = 0
KWA1 250806Z 29004KT 20/18 A2993 RMK A01 T01950176  RH  089%=      5-min Rain = 0
KWA1 250807Z 29004KT 20/18 A2993 RMK A01 T01950175  RH  088%=      5-min Rain = 0
KWA1 250808Z 28005KT 20/18 A2993 RMK A01 T01960176  RH  088%=      5-min Rain = 0
KWA1 250809Z 28005KT 20/18 A2993 RMK A01 T01970176  RH  088%=      5-min Rain = 0
KWA1 250810Z 27005KT 20/18 A2993 RMK A01 T01970176  RH  088%=      5-min Rain = 0
KWA1 250811Z 27005KT 20/18 A2993 RMK A01 T01980175  RH  087%=      5-min Rain = 0
KWA1 250812Z 26005KT 20/18 A2992 RMK A01 T01990175  RH  086%=      5-min Rain = 0
KWA1 250813Z 26006KT 20/18 A2992 RMK A01 T02000176  RH  086%=      5-min Rain = 0
KWA1 250814Z 25006KT 20/18 A2992 RMK A01 T02010176  RH  086%=      5-min Rain = 0
KWA1 250815Z 25006KT 20/18 A2992 RMK A01 T02010176  RH  086%=      5-min Rain = 0
KWA1 250816Z 25007KT 20/18 A2993 RMK A01 T02010177  RH  086%=      5-min Rain = 0
KWA1 250817Z 26007KT 20/18 A2992 RMK A01 T02010176  RH  086%=      5-min Rain = 0
KWA1 250818Z 25007KT 20/18 A2992 RMK A01 T02010176  RH  086%=      5-min Rain = 0
KWA1 250819Z 25008KT 20/18 A2992 RMK A01 T02010176  RH  086%=      5-min Rain = 0
KWA1 250820Z 25007KT 20/18 A2992 RMK A01 T02010176  RH  086%=      5-min Rain = 0
KWA1 250821Z 25007KT 20/18 A2992 RMK A01 T02010176  RH  085%=      5-min Rain = 0
KWA1 250822Z 25008KT 20/18 A2992 RMK A01 T02010176  RH  085%=      5-min Rain = 0
KWA1 250823Z 25008KT 20/18 A2992 RMK A01 T02020177  RH  085%=      5-min Rain = 0
KWA1 250824Z 25008KT 20/18 A2992 RMK A01 T02010177  RH  086%=      5-min Rain = 0
KWA1 250825Z 25008KT 20/18 A2992 RMK A01 T02010177  RH  086%=      5-min Rain = 0
KWA1 250826Z 24008KT 20/18 A2992 RMK A01 T02010177  RH  086%=      5-min Rain = 0
KWA1 250827Z 24008KT 20/18 A2992 RMK A01 T02000177  RH  086%=      5-min Rain = 0
KWA1 250828Z 24008KT 20/18 A2992 RMK A01 T02000177  RH  086%=      5-min Rain = 0
KWA1 250829Z 24009KT 20/18 A2992 RMK A01 T02000177  RH  086%=      5-min Rain = 0
KWA1 250830Z 23008KT 20/18 A2992 RMK A01 T02000177  RH  087%=      5-min Rain = 0
KWA1 250831Z 24008KT 20/18 A2992 RMK A01 T02000177  RH  087%=      5-min Rain = 0
KWA1 250832Z 24008KT 20/18 A2992 RMK A01 T02000177  RH  087%=      5-min Rain = 0
KWA1 250833Z 24007KT 20/18 A2992 RMK A01 T01990177  RH  087%=      5-min Rain = 0
KWA1 250834Z 24007KT 20/18 A2992 RMK A01 T01990177  RH  087%=      5-min Rain = 0
KWA1 250835Z 24007KT 20/18 A2992 RMK A01 T01980177  RH  087%=      5-min Rain = 0
KWA1 250836Z 25007KT 20/18 A2992 RMK A01 T01990177  RH  087%=      5-min Rain = 0
KWA1 250837Z 25006KT 20/18 A2992 RMK A01 T01980177  RH  088%=      5-min Rain = 0
KWA1 250838Z 25007KT 20/18 A2992 RMK A01 T01970176  RH  088%=      5-min Rain = 0
KWA1 250839Z 25007KT 20/18 A2992 RMK A01 T01980177  RH  088%=      5-min Rain = 0
KWA1 250840Z 25008KT 20/18 A2992 RMK A01 T01980176  RH  087%=      5-min Rain = 0
KWA1 250841Z 25008KT 20/18 A2992 RMK A01 T01980176  RH  087%=      5-min Rain = 0
KWA1 250842Z 25008KT 20/18 A2992 RMK A01 T01980176  RH  087%=      5-min Rain = 0
KWA1 250843Z 25007KT 20/18 A2992 RMK A01 T01980176  RH  087%=      5-min Rain = 0
KWA1 250844Z 25007KT 20/18 A2992 RMK A01 T01990176  RH  087%=      5-min Rain = 0
KWA1 250845Z 25007KT 20/18 A2992 RMK A01 T01990176  RH  087%=      5-min Rain = 0
KWA1 250846Z 25007KT 20/18 A2992 RMK A01 T01980176  RH  087%=      5-min Rain = 0
KWA1 250847Z 25007KT 20/18 A2992 RMK A01 T01970176  RH  088%=      5-min Rain = 0
KWA1 250848Z 25007KT 20/18 A2992 RMK A01 T01970176  RH  088%=      5-min Rain = 0
KWA1 250849Z 25007KT 20/18 A2992 RMK A01 T01960176  RH  088%=      5-min Rain = 0
KWA1 250850Z 25007KT 20/18 A2991 RMK A01 T01960175  RH  088%=      5-min Rain = 0
KWA1 250851Z 24007KT 20/18 A2991 RMK A01 T01960175  RH  088%=      5-min Rain = 0
KWA1 250852Z 25007KT 20/18 A2991 RMK A01 T01960175  RH  087%=      5-min Rain = 0
KWA1 250853Z 24008KT 20/17 A2991 RMK A01 T01960174  RH  087%=      5-min Rain = 0
KWA1 250854Z 25008KT 20/17 A2991 RMK A01 T01970174  RH  087%=      5-min Rain = 0
KWA1 250855Z 25009KT 20/17 A2991 RMK A01 T01970174  RH  087%=      5-min Rain = 0
KWA1 250856Z 25009KT 20/17 A2991 RMK A01 T01970174  RH  087%=      5-min Rain = 0
KWA1 250857Z 24009KT 20/17 A2991 RMK A01 T01960174  RH  087%=      5-min Rain = 0
KWA1 250858Z 24009KT 20/17 A2991 RMK A01 T01970173  RH  086%=      5-min Rain = 0
KWA1 250859Z 24008KT 20/17 A2991 RMK A01 T01970172  RH  086%=      5-min Rain = 0
KWA1 250900Z 24008KT 20/17 A2991 RMK A01 T01970171  RH  085%=      5-min Rain = 0
KWA1 250901Z 24008KT 20/17 A2991 RMK A01 T01970171  RH  085%=      5-min Rain = 0
KWA1 250902Z 24009KT 20/17 A2991 RMK A01 T01970170  RH  084%=      5-min Rain = 0
KWA1 250903Z 24009KT 20/17 A2991 RMK A01 T01980170  RH  084%=      5-min Rain = 0
KWA1 250904Z 24008KT 20/17 A2991 RMK A01 T01970169  RH  084%=      5-min Rain = 0
KWA1 250905Z 24008KT 20/17 A2991 RMK A01 T01980170  RH  084%=      5-min Rain = 0
KWA1 250906Z 23007KT 20/17 A2991 RMK A01 T01980169  RH  084%=      5-min Rain = 0
KWA1 250907Z 23007KT 20/17 A2991 RMK A01 T01980169  RH  084%=      5-min Rain = 0
KWA1 250908Z 23007KT 20/17 A2991 RMK A01 T01980168  RH  083%=      5-min Rain = 0
KWA1 250909Z 23007KT 20/17 A2991 RMK A01 T01970168  RH  083%=      5-min Rain = 0
KWA1 250910Z 22006KT 20/17 A2991 RMK A01 T01980166  RH  082%=      5-min Rain = 0
KWA1 250911Z 22006KT 20/17 A2991 RMK A01 T01990165  RH  081%=      5-min Rain = 0
KWA1 250912Z 22007KT 20/17 A2991 RMK A01 T02000165  RH  080%=      5-min Rain = 0
KWA1 250913Z 22006KT 20/17 A2991 RMK A01 T02000165  RH  080%=      5-min Rain = 0
KWA1 250914Z 22006KT 20/17 A2991 RMK A01 T02000166  RH  081%=      5-min Rain = 0
KWA1 250915Z 23007KT 20/17 A2991 RMK A01 T02000166  RH  081%=      5-min Rain = 0
KWA1 250916Z 23007KT 20/17 A2991 RMK A01 T01990167  RH  082%=      5-min Rain = 0
KWA1 250917Z 23007KT 20/17 A2991 RMK A01 T01980167  RH  082%=      5-min Rain = 0
KWA1 250918Z 24008KT 20/17 A2991 RMK A01 T01980167  RH  083%=      5-min Rain = 0
KWA1 250919Z 24007KT 20/17 A2991 RMK A01 T01970167  RH  083%=      5-min Rain = 0
KWA1 250920Z 23006KT 20/17 A2991 RMK A01 T01960168  RH  083%=      5-min Rain = 0
KWA1 250921Z 23006KT 20/17 A2991 RMK A01 T01960168  RH  084%=      5-min Rain = 0
KWA1 250922Z 23006KT 20/17 A2991 RMK A01 T01950168  RH  084%=      5-min Rain = 0
KWA1 250923Z 23006KT 20/17 A2991 RMK A01 T01950167  RH  084%=      5-min Rain = 0
KWA1 250924Z 23006KT 20/17 A2991 RMK A01 T01950167  RH  084%=      5-min Rain = 0
KWA1 250925Z 24006KT 20/17 A2991 RMK A01 T01950167  RH  084%=      5-min Rain = 0
KWA1 250926Z 24006KT 20/17 A2991 RMK A01 T01950168  RH  084%=      5-min Rain = 0
KWA1 250927Z 24006KT 19/17 A2991 RMK A01 T01940168  RH  085%=      5-min Rain = 0
KWA1 250928Z 24006KT 19/17 A2991 RMK A01 T01930168  RH  085%=      5-min Rain = 0
KWA1 250929Z 24006KT 19/17 A2991 RMK A01 T01920168  RH  086%=      5-min Rain = 0
KWA1 250930Z 24005KT 19/17 A2991 RMK A01 T01920168  RH  086%=      5-min Rain = 0
KWA1 250931Z 23006KT 19/17 A299 RMK A01 T01910168  RH  086%=      5-min Rain = 0
KWA1 250932Z 23006KT 19/17 A2991 RMK A01 T01910168  RH  086%=      5-min Rain = 0
KWA1 250933Z 23006KT 19/17 A2991 RMK A01 T01910167  RH  086%=      5-min Rain = 0
KWA1 250934Z 23007KT 19/17 A299 RMK A01 T01910167  RH  086%=      5-min Rain = 0
KWA1 250935Z 22006KT 19/17 A299 RMK A01 T01910165  RH  085%=      5-min Rain = 0
KWA1 250936Z 22005KT 19/17 A299 RMK A01 T01910165  RH  085%=      5-min Rain = 0
KWA1 250937Z 22006KT 19/17 A299 RMK A01 T01920165  RH  085%=      5-min Rain = 0
KWA1 250938Z 23007KT 19/17 A299 RMK A01 T01920165  RH  084%=      5-min Rain = 0
KWA1 250939Z 24007KT 19/17 A2991 RMK A01 T01920165  RH  084%=      5-min Rain = 0
KWA1 250940Z 24008KT 19/16 A2991 RMK A01 T01920164  RH  084%=      5-min Rain = 0
KWA1 250941Z 25008KT 19/16 A2991 RMK A01 T01920164  RH  084%=      5-min Rain = 0
KWA1 250942Z 25007KT 19/17 A299 RMK A01 T01920165  RH  084%=      5-min Rain = 0
KWA1 250943Z 24007KT 19/17 A299 RMK A01 T01920165  RH  085%=      5-min Rain = 0
KWA1 250944Z 24007KT 19/16 A299 RMK A01 T01920164  RH  084%=      5-min Rain = 0
KWA1 250945Z 24007KT 19/16 A299 RMK A01 T01920163  RH  084%=      5-min Rain = 0
KWA1 250946Z 24008KT 19/16 A299 RMK A01 T01920163  RH  083%=      5-min Rain = 0
KWA1 250947Z 25007KT 19/16 A299 RMK A01 T01920162  RH  083%=      5-min Rain = 0
KWA1 250948Z 25007KT 19/16 A299 RMK A01 T01920162  RH  083%=      5-min Rain = 0
KWA1 250949Z 25007KT 19/16 A299 RMK A01 T01920163  RH  083%=      5-min Rain = 0
KWA1 250950Z 26008KT 19/16 A2991 RMK A01 T01930163  RH  083%=      5-min Rain = 0
KWA1 250951Z 26007KT 19/16 A2991 RMK A01 T01920164  RH  084%=      5-min Rain = 0
KWA1 250952Z 27006KT 19/16 A299 RMK A01 T01910164  RH  084%=      5-min Rain = 0
KWA1 250953Z 27006KT 19/16 A299 RMK A01 T01900164  RH  085%=      5-min Rain = 0
KWA1 250954Z 27006KT 19/16 A2991 RMK A01 T01890164  RH  085%=      5-min Rain = 0
KWA1 250955Z 27006KT 19/16 A2991 RMK A01 T01880164  RH  085%=      5-min Rain = 0
KWA1 250956Z 27006KT 19/16 A2991 RMK A01 T01880164  RH  086%=      5-min Rain = 0
KWA1 250957Z 27007KT 19/16 A2991 RMK A01 T01880163  RH  086%=      5-min Rain = 0
KWA1 250958Z 27007KT 19/16 A2991 RMK A01 T01880163  RH  086%=      5-min Rain = 0
KWA1 250959Z 27006KT 19/16 A299 RMK A01 T01880163  RH  085%=      5-min Rain = 0
KWA1 251000Z 26006KT 19/16 A299 RMK A01 T01870163  RH  085%=      5-min Rain = 0
KWA1 251001Z 26006KT 19/16 A299 RMK A01 T01880163  RH  086%=      5-min Rain = 0
KWA1 251002Z 26007KT 19/16 A299 RMK A01 T01880164  RH  086%=      5-min Rain = 0
KWA1 251003Z 26007KT 19/16 A299 RMK A01 T01870162  RH  085%=      5-min Rain = 0
KWA1 251004Z 26007KT 19/16 A299 RMK A01 T01880161  RH  084%=      5-min Rain = 0
KWA1 251005Z 25008KT 19/16 A299 RMK A01 T01900161  RH  084%=      5-min Rain = 0
KWA1 251006Z 25008KT 19/16 A2991 RMK A01 T01910160  RH  082%=      5-min Rain = 0
KWA1 251007Z 26008KT 19/16 A299 RMK A01 T01920161  RH  082%=      5-min Rain = 0
KWA1 251008Z 26008KT 19/16 A2991 RMK A01 T01920161  RH  082%=      5-min Rain = 0
KWA1 251009Z 26008KT 19/16 A2991 RMK A01 T01920162  RH  083%=      5-min Rain = 0
KWA1 251010Z 26008KT 19/16 A299 RMK A01 T01910162  RH  083%=      5-min Rain = 0
KWA1 251011Z 26009KT 19/16 A299 RMK A01 T01910161  RH  083%=      5-min Rain = 0
KWA1 251012Z 26009KT 19/16 A299 RMK A01 T01920162  RH  083%=      5-min Rain = 0
KWA1 251013Z 26009KT 19/16 A299 RMK A01 T01910162  RH  083%=      5-min Rain = 0
KWA1 251014Z 26009KT 19/16 A299 RMK A01 T01920162  RH  083%=      5-min Rain = 0
KWA1 251015Z 26010KT 19/16 A299 RMK A01 T01910162  RH  083%=      5-min Rain = 0
KWA1 251016Z 26010KT 19/16 A299 RMK A01 T01910162  RH  084%=      5-min Rain = 0
KWA1 251017Z 25010KT 19/16 A299 RMK A01 T01910161  RH  083%=      5-min Rain = 0
KWA1 251018Z 25010KT 19/16 A299 RMK A01 T01910159  RH  082%=      5-min Rain = 0
KWA1 251019Z 25011KT 19/16 A299 RMK A01 T01930159  RH  081%=      5-min Rain = 0
KWA1 251020Z 25010KT 19/16 A299 RMK A01 T01940159  RH  080%=      5-min Rain = 0
KWA1 251021Z 25010KT 19/16 A299 RMK A01 T01940158  RH  079%=      5-min Rain = 0
KWA1 251022Z 25010KT 20/16 A299 RMK A01 T01950157  RH  079%=      5-min Rain = 0
KWA1 251023Z 25010KT 20/16 A299 RMK A01 T01950158  RH  079%=      5-min Rain = 0
KWA1 251024Z 25010KT 19/16 A2991 RMK A01 T01940159  RH  080%=      5-min Rain = 0
KWA1 251025Z 25010KT 19/16 A2991 RMK A01 T01920159  RH  081%=      5-min Rain = 0
KWA1 251026Z 25010KT 19/16 A2991 RMK A01 T01910159  RH  081%=      5-min Rain = 0
KWA1 251027Z 25010KT 19/16 A2991 RMK A01 T01910159  RH  082%=      5-min Rain = 0
KWA1 251028Z 24009KT 19/16 A2991 RMK A01 T01910159  RH  082%=      5-min Rain = 0
KWA1 251029Z 24010KT 19/16 A2991 RMK A01 T01900158  RH  082%=      5-min Rain = 0
KWA1 251030Z 24010KT 19/16 A2991 RMK A01 T01900157  RH  081%=      5-min Rain = 0
KWA1 251031Z 24010KT 19/16 A299 RMK A01 T01900157  RH  081%=      5-min Rain = 0
KWA1 251032Z 25009KT 19/16 A299 RMK A01 T01900157  RH  081%=      5-min Rain = 0
KWA1 251033Z 25009KT 19/16 A2991 RMK A01 T01900157  RH  081%=      5-min Rain = 0
KWA1 251034Z 25009KT 19/16 A2991 RMK A01 T01890157  RH  081%=      5-min Rain = 0
KWA1 251035Z 25009KT 19/16 A2991 RMK A01 T01890157  RH  082%=      5-min Rain = 0
KWA1 251036Z 25009KT 19/16 A2991 RMK A01 T01880157  RH  082%=      5-min Rain = 0
KWA1 251037Z 26009KT 19/16 A2991 RMK A01 T01870158  RH  083%=      5-min Rain = 0
KWA1 251038Z 26010KT 19/16 A2991 RMK A01 T01870158  RH  083%=      5-min Rain = 0
KWA1 251039Z 25010KT 19/16 A2992 RMK A01 T01870157  RH  083%=      5-min Rain = 0
KWA1 251040Z 25009KT 19/16 A2992 RMK A01 T01870157  RH  083%=      5-min Rain = 0
KWA1 251041Z 25009KT 19/16 A2992 RMK A01 T01870157  RH  083%=      5-min Rain = 0
KWA1 251042Z 25009KT 19/16 A2992 RMK A01 T01870156  RH  082%=      5-min Rain = 0
KWA1 251043Z 25009KT 19/16 A2992 RMK A01 T01870156  RH  082%=      5-min Rain = 0
KWA1 251044Z 25008KT 19/16 A2992 RMK A01 T01870156  RH  082%=      5-min Rain = 0
KWA1 251045Z 25008KT 19/16 A2992 RMK A01 T01880156  RH  082%=      5-min Rain = 0
KWA1 251046Z 25009KT 19/16 A2992 RMK A01 T01880157  RH  082%=      5-min Rain = 0
KWA1 251047Z 25008KT 19/16 A2992 RMK A01 T01880157  RH  082%=      5-min Rain = 0
KWA1 251048Z 26008KT 19/16 A2992 RMK A01 T01870157  RH  083%=      5-min Rain = 0
KWA1 251049Z 26008KT 19/16 A2992 RMK A01 T01870157  RH  083%=      5-min Rain = 0
KWA1 251050Z 26007KT 19/16 A2992 RMK A01 T01860157  RH  083%=      5-min Rain = 0
KWA1 251051Z 26008KT 19/16 A2992 RMK A01 T01860157  RH  084%=      5-min Rain = 0
KWA1 251052Z 26007KT 19/16 A2992 RMK A01 T01850158  RH  084%=      5-min Rain = 0
KWA1 251053Z 26008KT 19/16 A2992 RMK A01 T01850157  RH  084%=      5-min Rain = 0
KWA1 251054Z 26008KT 19/16 A2992 RMK A01 T01850158  RH  084%=      5-min Rain = 0
KWA1 251055Z 26007KT 18/16 A2992 RMK A01 T01840157  RH  084%=      5-min Rain = 0
KWA1 251056Z 27006KT 18/16 A2992 RMK A01 T01840158  RH  085%=      5-min Rain = 0
KWA1 251057Z 27006KT 18/16 A2992 RMK A01 T01830158  RH  085%=      5-min Rain = 0
KWA1 251058Z 27006KT 18/16 A2992 RMK A01 T01830158  RH  085%=      5-min Rain = 0
KWA1 251059Z 27007KT 18/16 A2992 RMK A01 T01830158  RH  086%=      5-min Rain = 0
KWA1 251100Z 26007KT 18/16 A2992 RMK A01 T01830158  RH  085%=      5-min Rain = 0
KWA1 251101Z 27007KT 18/16 A2992 RMK A01 T01830157  RH  085%=      5-min Rain = 0
KWA1 251102Z 27008KT 18/16 A2992 RMK A01 T01840157  RH  085%=      5-min Rain = 0
KWA1 251103Z 26008KT 18/16 A2992 RMK A01 T01840158  RH  084%=      5-min Rain = 0
KWA1 251104Z 27007KT 19/16 A2992 RMK A01 T01850157  RH  084%=      5-min Rain = 0
KWA1 251105Z 27007KT 19/16 A2992 RMK A01 T01850157  RH  084%=      5-min Rain = 0
KWA1 251106Z 27006KT 19/16 A2992 RMK A01 T01860158  RH  084%=      5-min Rain = 0
KWA1 251107Z 27007KT 19/16 A2992 RMK A01 T01860158  RH  084%=      5-min Rain = 0
KWA1 251108Z 26009KT 19/16 A2992 RMK A01 T01860158  RH  084%=      5-min Rain = 0
KWA1 251109Z 26009KT 19/16 A2992 RMK A01 T01870157  RH  083%=      5-min Rain = 0
KWA1 251110Z 27009KT 19/16 A2992 RMK A01 T01880157  RH  083%=      5-min Rain = 0
KWA1 251111Z 27009KT 19/16 A2992 RMK A01 T01880158  RH  082%=      5-min Rain = 0
KWA1 251112Z 27009KT 19/16 A2992 RMK A01 T01890158  RH  082%=      5-min Rain = 0
KWA1 251113Z 27009KT 19/16 A2992 RMK A01 T01880158  RH  082%=      5-min Rain = 0
KWA1 251114Z 27009KT 19/16 A2993 RMK A01 T01890158  RH  083%=      5-min Rain = 0
KWA1 251115Z 27008KT 19/16 A2993 RMK A01 T01880158  RH  083%=      5-min Rain = 0
KWA1 251116Z 28008KT 19/16 A2993 RMK A01 T01870158  RH  083%=      5-min Rain = 0
KWA1 251117Z 28009KT 19/16 A2993 RMK A01 T01870158  RH  083%=      5-min Rain = 0
KWA1 251118Z 27009KT 19/16 A2993 RMK A01 T01860158  RH  084%=      5-min Rain = 0
KWA1 251119Z 27008KT 19/16 A2993 RMK A01 T01860158  RH  084%=      5-min Rain = 0
KWA1 251120Z 27008KT 19/16 A2993 RMK A01 T01850158  RH  084%=      5-min Rain = 0
KWA1 251121Z 27007KT 19/16 A2993 RMK A01 T01850158  RH  084%=      5-min Rain = 0
KWA1 251122Z 27007KT 19/16 A2993 RMK A01 T01850158  RH  084%=      5-min Rain = 0
KWA1 251123Z 27008KT 18/16 A2993 RMK A01 T01840158  RH  085%=      5-min Rain = 0
KWA1 251124Z 27008KT 18/16 A2993 RMK A01 T01830158  RH  085%=      5-min Rain = 0
KWA1 251125Z 27008KT 18/16 A2993 RMK A01 T01830159  RH  086%=      5-min Rain = 0
KWA1 251126Z 27008KT 18/16 A2993 RMK A01 T01820158  RH  086%=      5-min Rain = 0
KWA1 251127Z 27008KT 18/16 A2993 RMK A01 T01820159  RH  086%=      5-min Rain = 0
KWA1 251128Z 27008KT 18/16 A2993 RMK A01 T01820158  RH  086%=      5-min Rain = 0
KWA1 251129Z 27007KT 18/16 A2993 RMK A01 T01810159  RH  086%=      5-min Rain = 0
KWA1 251130Z 28008KT 18/16 A2993 RMK A01 T01810158  RH  087%=      5-min Rain = 0
KWA1 251131Z 28007KT 18/16 A2993 RMK A01 T01810159  RH  087%=      5-min Rain = 0
KWA1 251132Z 28007KT 18/16 A2993 RMK A01 T01810159  RH  087%=      5-min Rain = 0
KWA1 251133Z 28007KT 18/16 A2993 RMK A01 T01810159  RH  087%=      5-min Rain = 0
KWA1 251134Z 28007KT 18/16 A2993 RMK A01 T01800159  RH  087%=      5-min Rain = 0
KWA1 251135Z 27007KT 18/16 A2993 RMK A01 T01790159  RH  088%=      5-min Rain = 0
KWA1 251136Z 27007KT 18/16 A2993 RMK A01 T01790159  RH  088%=      5-min Rain = 0
KWA1 251137Z 27007KT 18/16 A2993 RMK A01 T01790159  RH  088%=      5-min Rain = 0
KWA1 251138Z 27008KT 18/16 A2993 RMK A01 T01780160  RH  089%=      5-min Rain = 0
KWA1 251139Z 27008KT 18/16 A2993 RMK A01 T01780160  RH  089%=      5-min Rain = 0
KWA1 251140Z 27008KT 18/16 A2993 RMK A01 T01780160  RH  089%=      5-min Rain = 0
KWA1 251141Z 27008KT 18/16 A2993 RMK A01 T01780159  RH  089%=      5-min Rain = 0
KWA1 251142Z 27008KT 18/16 A2993 RMK A01 T01780159  RH  089%=      5-min Rain = 0
KWA1 251143Z 27008KT 18/16 A2993 RMK A01 T01780159  RH  089%=      5-min Rain = 0
KWA1 251144Z 27008KT 18/16 A2993 RMK A01 T01780159  RH  088%=      5-min Rain = 0
KWA1 251145Z 27008KT 18/16 A2993 RMK A01 T01790159  RH  088%=      5-min Rain = 0
KWA1 251146Z 27008KT 18/16 A2993 RMK A01 T01790159  RH  088%=      5-min Rain = 0
KWA1 251147Z 28008KT 18/16 A2993 RMK A01 T01790159  RH  088%=      5-min Rain = 0
KWA1 251148Z 27008KT 18/16 A2993 RMK A01 T01790159  RH  088%=      5-min Rain = 0
KWA1 251149Z 27008KT 18/16 A2993 RMK A01 T01790159  RH  088%=      5-min Rain = 0
KWA1 251150Z 27009KT 18/16 A2993 RMK A01 T01790159  RH  088%=      5-min Rain = 0
KWA1 251151Z 28008KT 18/16 A2993 RMK A01 T01800159  RH  088%=      5-min Rain = 0
KWA1 251152Z 28009KT 18/16 A2993 RMK A01 T01800159  RH  088%=      5-min Rain = 0
KWA1 251153Z 27009KT 18/16 A2993 RMK A01 T01800159  RH  087%=      5-min Rain = 0
KWA1 251154Z 28009KT 18/16 A2993 RMK A01 T01810159  RH  087%=      5-min Rain = 0
KWA1 251155Z 27009KT 18/16 A2993 RMK A01 T01810159  RH  087%=      5-min Rain = 0
KWA1 251156Z 27009KT 18/16 A2993 RMK A01 T01820159  RH  087%=      5-min Rain = 0
KWA1 251157Z 28010KT 18/16 A2993 RMK A01 T01820160  RH  087%=      5-min Rain = 0
KWA1 251158Z 28010KT 18/16 A2993 RMK A01 T01830160  RH  086%=      5-min Rain = 0
KWA1 251159Z 28009KT 18/16 A2993 RMK A01 T01840160  RH  086%=      5-min Rain = 0
KWA1 251200Z 27011KT 19/16 A2993 RMK A01 T01850161  RH  086%=      5-min Rain = 0
KWA1 251201Z 27012KT 19/16 A2993 RMK A01 T01850161  RH  086%=      5-min Rain = 0
KWA1 251202Z 27013KT 19/16 A2993 RMK A01 T01860162  RH  085%=      5-min Rain = 0
KWA1 251203Z 27012KT 19/16 A2993 RMK A01 T01870162  RH  085%=      5-min Rain = 0
KWA1 251204Z 27012KT 19/16 A2993 RMK A01 T01870162  RH  085%=      5-min Rain = 0
KWA1 251205Z 27012KT 19/16 A2993 RMK A01 T01880162  RH  085%=      5-min Rain = 0
KWA1 251206Z 27013KT 19/16 A2993 RMK A01 T01880162  RH  085%=      5-min Rain = 0
KWA1 251207Z 27012KT 19/16 A2993 RMK A01 T01890162  RH  084%=      5-min Rain = 0
KWA1 251208Z 28011KT 19/16 A2993 RMK A01 T01900163  RH  084%=      5-min Rain = 0
KWA1 251209Z 28011KT 19/16 A2993 RMK A01 T01900162  RH  084%=      5-min Rain = 0
KWA1 251210Z 28012KT 19/16 A2993 RMK A01 T01910163  RH  084%=      5-min Rain = 0
KWA1 251211Z 28011KT 19/16 A2994 RMK A01 T01910163  RH  084%=      5-min Rain = 0
KWA1 251212Z 29011KT 19/16 A2994 RMK A01 T01910163  RH  084%=      5-min Rain = 0
KWA1 251213Z 28011KT 19/16 A2994 RMK A01 T01910164  RH  084%=      5-min Rain = 0
KWA1 251214Z 29011KT 19/16 A2994 RMK A01 T01910164  RH  084%=      5-min Rain = 0
KWA1 251215Z 29010KT 19/16 A2994 RMK A01 T01910164  RH  085%=      5-min Rain = 0
KWA1 251216Z 29009KT 19/17 A2994 RMK A01 T01900165  RH  085%=      5-min Rain = 0
KWA1 251217Z 29009KT 19/17 A2994 RMK A01 T01900165  RH  086%=      5-min Rain = 0
KWA1 251218Z 29008KT 19/17 A2994 RMK A01 T01890166  RH  086%=      5-min Rain = 0
KWA1 251219Z 29008KT 19/17 A2994 RMK A01 T01890166  RH  086%=      5-min Rain = 0
KWA1 251220Z 29008KT 19/17 A2994 RMK A01 T01890166  RH  086%=      5-min Rain = 0
KWA1 251221Z 30007KT 19/17 A2994 RMK A01 T01890166  RH  087%=      5-min Rain = 0
KWA1 251222Z 30008KT 19/17 A2994 RMK A01 T01890166  RH  087%=      5-min Rain = 0
KWA1 251223Z 30008KT 19/17 A2994 RMK A01 T01890166  RH  086%=      5-min Rain = 0
KWA1 251224Z 30008KT 19/17 A2995 RMK A01 T01890165  RH  086%=      5-min Rain = 0
KWA1 251225Z 30009KT 19/17 A2995 RMK A01 T01890165  RH  086%=      5-min Rain = 0
KWA1 251226Z 30008KT 19/17 A2995 RMK A01 T01900165  RH  086%=      5-min Rain = 0
KWA1 251227Z 30007KT 19/17 A2995 RMK A01 T01900166  RH  086%=      5-min Rain = 0
KWA1 251228Z 31006KT 19/17 A2995 RMK A01 T01910166  RH  086%=      5-min Rain = 0
KWA1 251229Z 32006KT 19/17 A2996 RMK A01 T01910166  RH  085%=      5-min Rain = 0
KWA1 251230Z 34005KT 19/17 A2996 RMK A01 T01910166  RH  085%=      5-min Rain = 0
KWA1 251231Z 01004KT 19/17 A2996 RMK A01 T01920167  RH  085%=      5-min Rain = 0
KWA1 251232Z 03005KT 19/17 A2996 RMK A01 T01920167  RH  086%=      5-min Rain = 0
KWA1 251233Z 04006KT 19/17 A2997 RMK A01 T01920167  RH  085%=      5-min Rain = 0
KWA1 251234Z 06006KT 19/17 A2997 RMK A01 T01930168  RH  086%=      5-min Rain = 0
KWA1 251235Z 06007KT 19/17 A2997 RMK A01 T01930168  RH  085%=      5-min Rain = 0
KWA1 251236Z 06007KT 19/17 A2997 RMK A01 T01930167  RH  085%=      5-min Rain = 0
KWA1 251237Z 06006KT 19/17 A2997 RMK A01 T01930167  RH  085%=      5-min Rain = 0
KWA1 251238Z 05004KT 19/17 A2997 RMK A01 T01940167  RH  085%=      5-min Rain = 0
KWA1 251239Z 05004KT 19/17 A2997 RMK A01 T01940166  RH  084%=      5-min Rain = 0
KWA1 251240Z 04002KT 20/17 A2997 RMK A01 T01950166  RH  084%=      5-min Rain = 0
KWA1 251241Z 35003KT 20/17 A2997 RMK A01 T01960168  RH  084%=      5-min Rain = 0
KWA1 251242Z 34003KT 20/17 A2997 RMK A01 T01960167  RH  083%=      5-min Rain = 0
KWA1 251243Z 33003KT 20/17 A2997 RMK A01 T01960169  RH  084%=      5-min Rain = 0
KWA1 251244Z 33003KT 20/17 A2997 RMK A01 T01970170  RH  085%=      5-min Rain = 0
KWA1 251245Z 33003KT 20/17 A2997 RMK A01 T01970169  RH  084%=      5-min Rain = 0
KWA1 251246Z 00003KT 20/17 A2997 RMK A01 T01970167  RH  083%=      5-min Rain = 0
KWA1 251247Z 02002KT 20/17 A2997 RMK A01 T01980169  RH  083%=      5-min Rain = 0
KWA1 251248Z 04003KT 20/17 A2997 RMK A01 T01990170  RH  083%=      5-min Rain = 0
KWA1 251249Z 06004KT 20/17 A2997 RMK A01 T02000170  RH  083%=      5-min Rain = 0
KWA1 251250Z 07006KT 20/17 A2997 RMK A01 T02000172  RH  084%=      5-min Rain = 0
KWA1 251251Z 07006KT 20/17 A2997 RMK A01 T02000173  RH  085%=      5-min Rain = 0
KWA1 251252Z 08006KT 20/17 A2997 RMK A01 T01990173  RH  085%=      5-min Rain = 0
KWA1 251253Z 08005KT 20/17 A2997 RMK A01 T01990173  RH  085%=      5-min Rain = 0
KWA1 251254Z 08005KT 20/17 A2997 RMK A01 T02000173  RH  085%=      5-min Rain = 0
KWA1 251255Z 08004KT 20/17 A2997 RMK A01 T02000171  RH  083%=      5-min Rain = 0
KWA1 251256Z 07003KT 20/17 A2997 RMK A01 T02000169  RH  082%=      5-min Rain = 0
KWA1 251257Z 05002KT 20/17 A2997 RMK A01 T02000170  RH  082%=      5-min Rain = 0
KWA1 251258Z 06003KT 20/17 A2997 RMK A01 T02010170  RH  082%=      5-min Rain = 0
KWA1 251259Z 07004KT 20/17 A2998 RMK A01 T02020170  RH  082%=      5-min Rain = 0
KWA1 251300Z 08005KT 20/17 A2998 RMK A01 T02030171  RH  082%=      5-min Rain = 0
KWA1 251301Z 08007KT 20/17 A2998 RMK A01 T02030172  RH  082%=      5-min Rain = 0
KWA1 251302Z 08008KT 20/17 A2998 RMK A01 T02030173  RH  083%=      5-min Rain = 0
KWA1 251303Z 09007KT 20/18 A2998 RMK A01 T02040175  RH  084%=      5-min Rain = 0
KWA1 251304Z 08007KT 20/17 A2998 RMK A01 T02040173  RH  083%=      5-min Rain = 0
KWA1 251305Z 08006KT 20/17 A2998 RMK A01 T02040174  RH  083%=      5-min Rain = 0
KWA1 251306Z 08005KT 21/17 A2998 RMK A01 T02050171  RH  081%=      5-min Rain = 0
KWA1 251307Z 08005KT 21/17 A2998 RMK A01 T02050170  RH  080%=      5-min Rain = 0
KWA1 251308Z 08005KT 21/17 A2998 RMK A01 T02050171  RH  081%=      5-min Rain = 0
KWA1 251309Z 09005KT 21/17 A2998 RMK A01 T02050170  RH  080%=      5-min Rain = 0
KWA1 251310Z 09005KT 21/17 A2998 RMK A01 T02060171  RH  081%=      5-min Rain = 0
KWA1 251311Z 09006KT 21/17 A2998 RMK A01 T02060174  RH  082%=      5-min Rain = 0
KWA1 251312Z 09006KT 21/17 A2998 RMK A01 T02060172  RH  081%=      5-min Rain = 0
KWA1 251313Z 10006KT 21/17 A2999 RMK A01 T02060173  RH  081%=      5-min Rain = 0
KWA1 251314Z 10006KT 21/17 A2999 RMK A01 T02060174  RH  082%=      5-min Rain = 0
KWA1 251315Z 09005KT 21/18 A2999 RMK A01 T02060175  RH  082%=      5-min Rain = 0
KWA1 251316Z 09006KT 21/17 A2999 RMK A01 T02060174  RH  082%=      5-min Rain = 0
KWA1 251317Z 10006KT 21/18 A2999 RMK A01 T02060175  RH  082%=      5-min Rain = 0
KWA1 251318Z 10006KT 21/17 A2999 RMK A01 T02060174  RH  082%=      5-min Rain = 0
KWA1 251319Z 10006KT 21/17 A2999 RMK A01 T02060173  RH  081%=      5-min Rain = 0
KWA1 251320Z 10006KT 21/17 A2999 RMK A01 T02070173  RH  081%=      5-min Rain = 0
KWA1 251321Z 10006KT 21/17 A2999 RMK A01 T02070172  RH  080%=      5-min Rain = 0
KWA1 251322Z 10006KT 21/17 A2999 RMK A01 T02080172  RH  080%=      5-min Rain = 0
KWA1 251323Z 10006KT 21/17 A2999 RMK A01 T02080174  RH  081%=      5-min Rain = 0
KWA1 251324Z 09006KT 21/17 A2999 RMK A01 T02080173  RH  080%=      5-min Rain = 0
KWA1 251325Z 09007KT 21/17 A2999 RMK A01 T02090172  RH  080%=      5-min Rain = 0
KWA1 251326Z 09006KT 21/18 A2999 RMK A01 T02080176  RH  081%=      5-min Rain = 0
KWA1 251327Z 10006KT 21/18 A2999 RMK A01 T02090176  RH  081%=      5-min Rain = 0
KWA1 251328Z 10005KT 21/17 A2999 RMK A01 T02090171  RH  079%=      5-min Rain = 0
KWA1 251329Z 10005KT 21/17 A2999 RMK A01 T02100172  RH  079%=      5-min Rain = 0
KWA1 251330Z 10005KT 21/17 A2999 RMK A01 T02090170  RH  078%=      5-min Rain = 0
KWA1 251331Z 10005KT 21/17 A2999 RMK A01 T02090171  RH  079%=      5-min Rain = 0
KWA1 251332Z 10004KT 21/18 A2999 RMK A01 T02100175  RH  081%=      5-min Rain = 0
KWA1 251333Z 10005KT 21/17 A2999 RMK A01 T02100174  RH  079%=      5-min Rain = 0
KWA1 251334Z 10005KT 21/17 A30 RMK A01 T02110172  RH  078%=      5-min Rain = 0
KWA1 251335Z 10005KT 21/17 A30 RMK A01 T02110173  RH  079%=      5-min Rain = 0
KWA1 251336Z 10004KT 21/18 A30 RMK A01 T02110176  RH  080%=      5-min Rain = 0
KWA1 251337Z 10004KT 21/18 A2999 RMK A01 T02120177  RH  080%=      5-min Rain = 0
KWA1 251338Z 12004KT 21/18 A2999 RMK A01 T02130178  RH  080%=      5-min Rain = 0
KWA1 251339Z 12004KT 21/17 A2999 RMK A01 T02130169  RH  076%=      5-min Rain = 0
KWA1 251340Z 12004KT 21/17 A30 RMK A01 T02130170  RH  076%=      5-min Rain = 0
KWA1 251341Z 11004KT 21/17 A30 RMK A01 T02130171  RH  077%=      5-min Rain = 0
KWA1 251342Z 11003KT 21/17 A30 RMK A01 T02140171  RH  077%=      5-min Rain = 0
KWA1 251343Z 11004KT 22/17 A30 RMK A01 T02150170  RH  076%=      5-min Rain = 0
KWA1 251344Z 12004KT 22/17 A30 RMK A01 T02150168  RH  074%=      5-min Rain = 0
KWA1 251345Z 12004KT 21/17 A30 RMK A01 T02140166  RH  074%=      5-min Rain = 0
KWA1 251346Z 12004KT 21/17 A3001 RMK A01 T02140167  RH  075%=      5-min Rain = 0
KWA1 251347Z 11003KT 21/17 A3001 RMK A01 T02140166  RH  074%=      5-min Rain = 0
KWA1 251348Z 11003KT 21/17 A3001 RMK A01 T02140168  RH  075%=      5-min Rain = 0
KWA1 251349Z 12003KT 22/17 A3001 RMK A01 T02150167  RH  074%=      5-min Rain = 0
KWA1 251350Z 14005KT 22/17 A3001 RMK A01 T02160171  RH  076%=      5-min Rain = 0
KWA1 251351Z 16006KT 22/17 A3001 RMK A01 T02160170  RH  075%=      5-min Rain = 0
KWA1 251352Z 16004KT 22/17 A3002 RMK A01 T02160170  RH  075%=      5-min Rain = 0
KWA1 251353Z 14006KT 22/17 A3002 RMK A01 T02160171  RH  075%=      5-min Rain = 0
KWA1 251354Z 13006KT 22/17 A3002 RMK A01 T02160172  RH  076%=      5-min Rain = 0
KWA1 251355Z 13006KT 22/17 A3002 RMK A01 T02160172  RH  076%=      5-min Rain = 0
KWA1 251356Z 13006KT 22/17 A3002 RMK A01 T02160172  RH  076%=      5-min Rain = 0
KWA1 251357Z 13007KT 22/17 A3002 RMK A01 T02160172  RH  076%=      5-min Rain = 0
KWA1 251358Z 13008KT 22/17 A3002 RMK A01 T02160174  RH  077%=      5-min Rain = 0
KWA1 251359Z 14007KT 22/17 A3002 RMK A01 T02170171  RH  075%=      5-min Rain = 0
KWA1 251400Z 14006KT 22/17 A3002 RMK A01 T02170169  RH  074%=      5-min Rain = 0
KWA1 251401Z 15007KT 22/17 A3002 RMK A01 T02160170  RH  075%=      5-min Rain = 0
KWA1 251402Z 14006KT 22/17 A3002 RMK A01 T02170174  RH  077%=      5-min Rain = 0
KWA1 251403Z 14007KT 22/18 A3002 RMK A01 T02170176  RH  077%=      5-min Rain = 0
KWA1 251404Z 15007KT 22/18 A3003 RMK A01 T02180175  RH  076%=      5-min Rain = 0
KWA1 251405Z 15007KT 22/17 A3003 RMK A01 T02180174  RH  076%=      5-min Rain = 0
KWA1 251406Z 15008KT 22/18 A3003 RMK A01 T02190177  RH  077%=      5-min Rain = 0
KWA1 251407Z 15008KT 22/17 A3003 RMK A01 T02190173  RH  075%=      5-min Rain = 0
KWA1 251408Z 15007KT 22/18 A3003 RMK A01 T02190176  RH  076%=      5-min Rain = 0
KWA1 251409Z 14006KT 22/17 A3003 RMK A01 T02190174  RH  075%=      5-min Rain = 0
KWA1 251410Z 14007KT 22/18 A3003 RMK A01 T02200176  RH  076%=      5-min Rain = 0
KWA1 251411Z 14006KT 22/17 A3003 RMK A01 T02200172  RH  074%=      5-min Rain = 0
KWA1 251412Z 14005KT 22/17 A3003 RMK A01 T02200174  RH  075%=      5-min Rain = 0
KWA1 251413Z 14006KT 22/17 A3003 RMK A01 T02200172  RH  074%=      5-min Rain = 0
KWA1 251414Z 16006KT 22/17 A3003 RMK A01 T02200172  RH  074%=      5-min Rain = 0
KWA1 251415Z 16007KT 22/18 A3003 RMK A01 T02210175  RH  075%=      5-min Rain = 0
KWA1 251416Z 16006KT 22/18 A3003 RMK A01 T02210176  RH  076%=      5-min Rain = 0
KWA1 251417Z 15006KT 22/18 A3003 RMK A01 T02220175  RH  075%=      5-min Rain = 0
KWA1 251418Z 15006KT 22/17 A3003 RMK A01 T02220172  RH  073%=      5-min Rain = 0
KWA1 251419Z 15006KT 22/18 A3003 RMK A01 T02230175  RH  074%=      5-min Rain = 0
KWA1 251420Z 15006KT 22/17 A3003 RMK A01 T02230172  RH  073%=      5-min Rain = 0
KWA1 251421Z 15007KT 22/17 A3003 RMK A01 T02230174  RH  073%=      5-min Rain = 0
KWA1 251422Z 14006KT 22/17 A3003 RMK A01 T02240172  RH  073%=      5-min Rain = 0
KWA1 251423Z 13005KT 22/18 A3003 RMK A01 T02230175  RH  074%=      5-min Rain = 0
KWA1 251424Z 12005KT 22/18 A3003 RMK A01 T02240176  RH  074%=      5-min Rain = 0
KWA1 251425Z 12006KT 22/17 A3003 RMK A01 T02240171  RH  072%=      5-min Rain = 0
KWA1 251426Z 13007KT 22/18 A3003 RMK A01 T02240175  RH  074%=      5-min Rain = 0
KWA1 251427Z 13006KT 22/17 A3003 RMK A01 T02230172  RH  072%=      5-min Rain = 0
KWA1 251428Z 13006KT 22/17 A3003 RMK A01 T02230171  RH  072%=      5-min Rain = 0
KWA1 251429Z 13006KT 22/17 A3003 RMK A01 T02230172  RH  073%=      5-min Rain = 0
KWA1 251430Z 12005KT 22/17 A3003 RMK A01 T02230172  RH  073%=      5-min Rain = 0
KWA1 251431Z 12005KT 22/18 A3003 RMK A01 T02230175  RH  074%=      5-min Rain = 0
KWA1 251432Z 11007KT 22/18 A3003 RMK A01 T02240178  RH  075%=      5-min Rain = 0
KWA1 251433Z 12006KT 23/18 A3003 RMK A01 T02250176  RH  073%=      5-min Rain = 0
KWA1 251434Z 11005KT 23/18 A3003 RMK A01 T02250175  RH  073%=      5-min Rain = 0
KWA1 251435Z 11006KT 23/18 A3003 RMK A01 T02250175  RH  073%=      5-min Rain = 0
KWA1 251436Z 12007KT 23/17 A3003 RMK A01 T02250173  RH  072%=      5-min Rain = 0
KWA1 251437Z 13006KT 23/17 A3003 RMK A01 T02250174  RH  073%=      5-min Rain = 0
KWA1 251438Z 13005KT 23/18 A3003 RMK A01 T02260175  RH  073%=      5-min Rain = 0
KWA1 251439Z 12007KT 23/18 A3003 RMK A01 T02270178  RH  074%=      5-min Rain = 0
KWA1 251440Z 12007KT 23/18 A3003 RMK A01 T02270176  RH  073%=      5-min Rain = 0
KWA1 251441Z 12006KT 23/17 A3003 RMK A01 T02270172  RH  071%=      5-min Rain = 0
KWA1 251442Z 12007KT 23/18 A3003 RMK A01 T02270177  RH  073%=      5-min Rain = 0
KWA1 251443Z 12006KT 23/17 A3003 RMK A01 T02280174  RH  072%=      5-min Rain = 0
KWA1 251444Z 13007KT 23/18 A3003 RMK A01 T02290178  RH  073%=      5-min Rain = 0
KWA1 251445Z 12007KT 23/17 A3003 RMK A01 T02290174  RH  071%=      5-min Rain = 0
KWA1 251446Z 14008KT 23/18 A3003 RMK A01 T02300177  RH  072%=      5-min Rain = 0
KWA1 251447Z 14008KT 23/18 A3003 RMK A01 T02310179  RH  072%=      5-min Rain = 0
KWA1 251448Z 13008KT 23/18 A3003 RMK A01 T02320176  RH  071%=      5-min Rain = 0
KWA1 251449Z 12009KT 23/18 A3003 RMK A01 T02320176  RH  071%=      5-min Rain = 0
KWA1 251450Z 12009KT 23/18 A3003 RMK A01 T02310178  RH  072%=      5-min Rain = 0
KWA1 251451Z 12007KT 23/18 A3003 RMK A01 T02300175  RH  071%=      5-min Rain = 0
KWA1 251452Z 11008KT 23/18 A3003 RMK A01 T02300178  RH  073%=      5-min Rain = 0
KWA1 251453Z 11007KT 23/18 A3003 RMK A01 T02300177  RH  072%=      5-min Rain = 0
KWA1 251454Z 10007KT 23/18 A3003 RMK A01 T02310182  RH  074%=      5-min Rain = 0
KWA1 251455Z 11007KT 23/18 A3003 RMK A01 T02320182  RH  073%=      5-min Rain = 0
KWA1 251456Z 11009KT 23/18 A3003 RMK A01 T02330182  RH  073%=      5-min Rain = 0
KWA1 251457Z 12008KT 23/18 A3003 RMK A01 T02330181  RH  072%=      5-min Rain = 0
KWA1 251458Z 11010KT 23/18 A3003 RMK A01 T02330176  RH  070%=      5-min Rain = 0
KWA1 251459Z 11007KT 23/18 A3003 RMK A01 T02320179  RH  072%=      5-min Rain = 0
KWA1 251500Z 11008KT 23/18 A3003 RMK A01 T02320180  RH  073%=      5-min Rain = 0
KWA1 251501Z 11010KT 23/18 A3003 RMK A01 T02330179  RH  072%=      5-min Rain = 0
KWA1 251502Z 12010KT 23/18 A3004 RMK A01 T02330181  RH  073%=      5-min Rain = 0
KWA1 251503Z 13011KT 23/18 A3004 RMK A01 T02330182  RH  073%=      5-min Rain = 0
KWA1 251504Z 12010KT 23/18 A3004 RMK A01 T02330184  RH  074%=      5-min Rain = 0
KWA1 251505Z 12009KT 23/19 A3004 RMK A01 T02340186  RH  074%=      5-min Rain = 0
KWA1 251506Z 12010KT 23/18 A3003 RMK A01 T02340181  RH  072%=      5-min Rain = 0
KWA1 251507Z 12009KT 23/18 A3003 RMK A01 T02340182  RH  073%=      5-min Rain = 0
KWA1 251508Z 12008KT 23/18 A3003 RMK A01 T02340180  RH  072%=      5-min Rain = 0
KWA1 251509Z 12007KT 23/18 A3003 RMK A01 T02340180  RH  072%=      5-min Rain = 0
KWA1 251510Z 12008KT 23/18 A3003 RMK A01 T02340183  RH  073%=      5-min Rain = 0
KWA1 251511Z 11008KT 24/18 A3003 RMK A01 T02350181  RH  072%=      5-min Rain = 0
KWA1 251512Z 10009KT 24/18 A3003 RMK A01 T02350183  RH  073%=      5-min Rain = 0
KWA1 251513Z 10009KT 24/18 A3003 RMK A01 T02360184  RH  072%=      5-min Rain = 0
KWA1 251514Z 11009KT 24/18 A3004 RMK A01 T02370183  RH  072%=      5-min Rain = 0
KWA1 251515Z 11008KT 24/19 A3004 RMK A01 T02370185  RH  072%=      5-min Rain = 0
KWA1 251516Z 10007KT 24/19 A3003 RMK A01 T02390188  RH  073%=      5-min Rain = 0
KWA1 251517Z 11006KT 24/19 A3003 RMK A01 T02400186  RH  072%=      5-min Rain = 0
KWA1 251518Z 11009KT 24/18 A3003 RMK A01 T02400181  RH  070%=      5-min Rain = 0
KWA1 251519Z 12008KT 24/18 A3003 RMK A01 T02400183  RH  071%=      5-min Rain = 0
KWA1 251520Z 12009KT 24/18 A3003 RMK A01 T02400181  RH  070%=      5-min Rain = 0
KWA1 251521Z 12009KT 24/19 A3003 RMK A01 T02410185  RH  071%=      5-min Rain = 0
KWA1 251522Z 13011KT 24/18 A3003 RMK A01 T02420180  RH  068%=      5-min Rain = 0
KWA1 251523Z 13009KT 24/18 A3003 RMK A01 T02430178  RH  067%=      5-min Rain = 0
KWA1 251524Z 13007KT 24/18 A3003 RMK A01 T02420180  RH  068%=      5-min Rain = 0
KWA1 251525Z 12008KT 24/18 A3003 RMK A01 T02430184  RH  070%=      5-min Rain = 0
KWA1 251526Z 14008KT 25/18 A3003 RMK A01 T02450181  RH  067%=      5-min Rain = 0
KWA1 251527Z 12009KT 25/18 A3003 RMK A01 T02450183  RH  068%=      5-min Rain = 0
KWA1 251528Z 13010KT 25/18 A3004 RMK A01 T02460179  RH  066%=      5-min Rain = 0
KWA1 251529Z 14009KT 25/18 A3004 RMK A01 T02460180  RH  067%=      5-min Rain = 0
KWA1 251530Z 14010KT 25/18 A3004 RMK A01 T02460181  RH  067%=      5-min Rain = 0
KWA1 251531Z 14009KT 25/19 A3004 RMK A01 T02470187  RH  069%=      5-min Rain = 0
KWA1 251532Z 15009KT 25/18 A3004 RMK A01 T02480180  RH  066%=      5-min Rain = 0
KWA1 251533Z 15008KT 25/18 A3004 RMK A01 T02480180  RH  066%=      5-min Rain = 0
KWA1 251534Z 14007KT 25/18 A3004 RMK A01 T02480184  RH  068%=      5-min Rain = 0
KWA1 251535Z 13009KT 25/19 A3004 RMK A01 T02500185  RH  067%=      5-min Rain = 0
KWA1 251541Z 14009KT 25/18 A3004 RMK A01 T02530176  RH  062%=      5-min Rain = 0
KWA1 251542Z 15012KT 25/18 A3004 RMK A01 T02540177  RH  062%=      5-min Rain = 0
KWA1 251543Z 15012KT 26/17 A3004 RMK A01 T02550174  RH  061%=      5-min Rain = 0
KWA1 251544Z 15011KT 26/17 A3004 RMK A01 T02550172  RH  060%=      5-min Rain = 0
KWA1 251545Z 16010KT 26/18 A3004 RMK A01 T02560176  RH  061%=      5-min Rain = 0
KWA1 251546Z 17009KT 26/18 A3004 RMK A01 T02560176  RH  061%=      5-min Rain = 0
KWA1 251547Z 17010KT 26/18 A3004 RMK A01 T02580180  RH  062%=      5-min Rain = 0
KWA1 251548Z 17011KT 26/18 A3004 RMK A01 T02590179  RH  061%=      5-min Rain = 0
KWA1 251549Z 17012KT 26/18 A3004 RMK A01 T02590178  RH  061%=      5-min Rain = 0
KWA1 251550Z 17011KT 26/18 A3004 RMK A01 T02590178  RH  061%=      5-min Rain = 0
KWA1 251551Z 17010KT 26/19 A3004 RMK A01 T02600188  RH  065%=      5-min Rain = 0
KWA1 251552Z 15011KT 26/18 A3004 RMK A01 T02610184  RH  062%=      5-min Rain = 0
KWA1 251553Z 14011KT 26/18 A3004 RMK A01 T02610177  RH  060%=      5-min Rain = 0
KWA1 251554Z 15013KT 26/18 A3004 RMK A01 T02600180  RH  062%=      5-min Rain = 0
KWA1 251555Z 15011KT 26/18 A3004 RMK A01 T02600182  RH  062%=      5-min Rain = 0
KWA1 251556Z 16013KT 26/19 A3004 RMK A01 T02610185  RH  063%=      5-min Rain = 0
KWA1 251557Z 17013KT 26/18 A3004 RMK A01 T02610184  RH  063%=      5-min Rain = 0
KWA1 251558Z 18013KT 26/18 A3004 RMK A01 T02610184  RH  062%=      5-min Rain = 0
KWA1 251559Z 17013KT 26/18 A3004 RMK A01 T02610184  RH  062%=      5-min Rain = 0
KWA1 251600Z 15011KT 26/19 A3004 RMK A01 T02610185  RH  063%=      5-min Rain = 0
KWA1 251601Z 16009G14KT 26/19 A3004 RMK A01 T02610188  RH  064%=      5-min Rain = 0
KWA1 251602Z 17014KT 26/19 A3004 RMK A01 T02620188  RH  064%=      5-min Rain = 0
KWA1 251603Z 17013KT 26/19 A3004 RMK A01 T02630185  RH  062%=      5-min Rain = 0
KWA1 251604Z 17013KT 26/19 A3004 RMK A01 T02620185  RH  063%=      5-min Rain = 0
KWA1 251605Z 18013KT 26/19 A3004 RMK A01 T02620189  RH  064%=      5-min Rain = 0
KWA1 251606Z 16011KT 26/19 A3004 RMK A01 T02620191  RH  065%=      5-min Rain = 0
KWA1 251607Z 15012KT 26/18 A3004 RMK A01 T02630184  RH  062%=      5-min Rain = 0
KWA1 251608Z 15010KT 26/18 A3004 RMK A01 T02630183  RH  062%=      5-min Rain = 0
KWA1 251609Z 15012KT 26/18 A3004 RMK A01 T02620184  RH  062%=      5-min Rain = 0
KWA1 251610Z 16014KT 26/19 A3004 RMK A01 T02630192  RH  065%=      5-min Rain = 0
KWA1 251611Z 16014KT 26/19 A3004 RMK A01 T02640186  RH  062%=      5-min Rain = 0
KWA1 251612Z 16010KT 26/18 A3004 RMK A01 T02630181  RH  060%=      5-min Rain = 0
KWA1 251613Z 18010KT 26/19 A3004 RMK A01 T02630185  RH  062%=      5-min Rain = 0
KWA1 251614Z 17013KT 26/18 A3004 RMK A01 T02620183  RH  062%=      5-min Rain = 0
KWA1 251615Z 18011KT 26/19 A3004 RMK A01 T02630186  RH  063%=      5-min Rain = 0
KWA1 251616Z 18013KT 26/19 A3005 RMK A01 T02640189  RH  064%=      5-min Rain = 0
KWA1 251617Z 18010KT 26/18 A3005 RMK A01 T02630178  RH  059%=      5-min Rain = 0
KWA1 251618Z 19010KT 26/18 A3004 RMK A01 T02620182  RH  061%=      5-min Rain = 0
KWA1 251619Z 17011KT 26/19 A3004 RMK A01 T02620188  RH  064%=      5-min Rain = 0
KWA1 251620Z 18011KT 26/19 A3004 RMK A01 T02630189  RH  064%=      5-min Rain = 0
KWA1 251621Z 18011KT 27/19 A3004 RMK A01 T02650194  RH  065%=      5-min Rain = 0
KWA1 251622Z 18012KT 27/19 A3004 RMK A01 T02660189  RH  063%=      5-min Rain = 0
KWA1 251623Z 19012KT 27/19 A3004 RMK A01 T02660187  RH  062%=      5-min Rain = 0
KWA1 251624Z 19010KT 26/19 A3004 RMK A01 T02640187  RH  063%=      5-min Rain = 0
KWA1 251625Z 19010KT 26/20 A3005 RMK A01 T02640196  RH  066%=      5-min Rain = 0
KWA1 251626Z 18010KT 27/19 A3005 RMK A01 T02650190  RH  063%=      5-min Rain = 0
KWA1 251627Z 18010KT 27/19 A3005 RMK A01 T02660185  RH  061%=      5-min Rain = 0
KWA1 251628Z 18008KT 27/19 A3005 RMK A01 T02660187  RH  062%=      5-min Rain = 0
KWA1 251629Z 17008KT 27/19 A3005 RMK A01 T02660189  RH  063%=      5-min Rain = 0
KWA1 251630Z 16009KT 27/19 A3005 RMK A01 T02670188  RH  062%=      5-min Rain = 0
KWA1 251631Z 17007KT 27/19 A3005 RMK A01 T02670186  RH  061%=      5-min Rain = 0
KWA1 251632Z 18007KT 27/19 A3005 RMK A01 T02670186  RH  061%=      5-min Rain = 0
KWA1 251633Z 17008KT 27/19 A3005 RMK A01 T02670194  RH  064%=      5-min Rain = 0
KWA1 251634Z 15008KT 27/19 A3005 RMK A01 T02680188  RH  061%=      5-min Rain = 0
KWA1 251635Z 15006KT 27/19 A3005 RMK A01 T02680185  RH  060%=      5-min Rain = 0
KWA1 251636Z 15008KT 27/19 A3005 RMK A01 T02680192  RH  063%=      5-min Rain = 0
KWA1 251637Z 15010KT 27/20 A3005 RMK A01 T02700198  RH  065%=      5-min Rain = 0
KWA1 251638Z 18010KT 27/20 A3005 RMK A01 T02710199  RH  065%=      5-min Rain = 0
KWA1 251639Z 16009KT 27/19 A3005 RMK A01 T02710193  RH  062%=      5-min Rain = 0
KWA1 251640Z 16010KT 27/19 A3005 RMK A01 T02710187  RH  060%=      5-min Rain = 0
KWA1 251641Z 14009KT 27/19 A3005 RMK A01 T02690189  RH  062%=      5-min Rain = 0
KWA1 251642Z 15011KT 27/19 A3005 RMK A01 T02680186  RH  061%=      5-min Rain = 0
KWA1 251643Z 14012KT 27/19 A3005 RMK A01 T02680191  RH  063%=      5-min Rain = 0
KWA1 251644Z 14012KT 27/19 A3005 RMK A01 T02680187  RH  061%=      5-min Rain = 0
KWA1 251645Z 14010KT 27/19 A3005 RMK A01 T02670187  RH  061%=      5-min Rain = 0
KWA1 251646Z 15009KT 27/19 A3005 RMK A01 T02670190  RH  062%=      5-min Rain = 0
KWA1 251647Z 17011KT 27/19 A3005 RMK A01 T02680188  RH  062%=      5-min Rain = 0
KWA1 251648Z 16008KT 27/20 A3005 RMK A01 T02690196  RH  064%=      5-min Rain = 0
KWA1 251649Z 15010KT 27/19 A3005 RMK A01 T02710189  RH  061%=      5-min Rain = 0
KWA1 251650Z 16009KT 27/19 A3005 RMK A01 T02700193  RH  063%=      5-min Rain = 0
KWA1 251651Z 16009KT 27/19 A3005 RMK A01 T02710187  RH  060%=      5-min Rain = 0
KWA1 251652Z 17007KT 27/19 A3005 RMK A01 T02690185  RH  060%=      5-min Rain = 0
KWA1 251653Z 16009KT 27/19 A3005 RMK A01 T02700194  RH  063%=      5-min Rain = 0
KWA1 251654Z 16009KT 27/19 A3005 RMK A01 T02710192  RH  062%=      5-min Rain = 0
KWA1 251655Z 15007KT 27/19 A3005 RMK A01 T02710188  RH  061%=      5-min Rain = 0
KWA1 251656Z 15007KT 27/19 A3005 RMK A01 T02710186  RH  060%=      5-min Rain = 0
KWA1 251657Z 15008KT 27/19 A3005 RMK A01 T02710190  RH  061%=      5-min Rain = 0
KWA1 251658Z 17008KT 27/19 A3005 RMK A01 T02710192  RH  062%=      5-min Rain = 0
KWA1 251659Z 15008KT 27/20 A3005 RMK A01 T02730203  RH  065%=      5-min Rain = 0
KWA1 251700Z 16010KT 27/19 A3005 RMK A01 T02740193  RH  061%=      5-min Rain = 0
KWA1 251701Z 18009KT 27/20 A3005 RMK A01 T02740195  RH  062%=      5-min Rain = 0
KWA1 251702Z 18007KT 27/19 A3005 RMK A01 T02740192  RH  061%=      5-min Rain = 0
KWA1 251703Z 15007KT 27/19 A3005 RMK A01 T02740193  RH  061%=      5-min Rain = 0
KWA1 251704Z 15008KT 27/19 A3005 RMK A01 T02740191  RH  060%=      5-min Rain = 0
KWA1 251705Z 15009KT 27/19 A3005 RMK A01 T02740193  RH  061%=      5-min Rain = 0
KWA1 251706Z 17008KT 27/19 A3005 RMK A01 T02740189  RH  060%=      5-min Rain = 0
KWA1 251707Z 17007KT 27/19 A3005 RMK A01 T02730188  RH  060%=      5-min Rain = 0
KWA1 251708Z 16006KT 27/19 A3005 RMK A01 T02730191  RH  061%=      5-min Rain = 0
KWA1 251709Z 17008KT 27/19 A3005 RMK A01 T02740192  RH  061%=      5-min Rain = 0
KWA1 251710Z 19010KT 28/19 A3005 RMK A01 T02750193  RH  061%=      5-min Rain = 0
KWA1 251711Z 17009KT 28/19 A3005 RMK A01 T02750191  RH  060%=      5-min Rain = 0
KWA1 251712Z 19008KT 27/19 A3005 RMK A01 T02740191  RH  060%=      5-min Rain = 0
KWA1 251713Z 18007KT 28/20 A3005 RMK A01 T02750195  RH  062%=      5-min Rain = 0
KWA1 251714Z 17008KT 28/19 A3005 RMK A01 T02760193  RH  061%=      5-min Rain = 0
KWA1 251715Z 17007KT 28/19 A3005 RMK A01 T02760189  RH  059%=      5-min Rain = 0
KWA1 251716Z 16006KT 28/19 A3005 RMK A01 T02750193  RH  061%=      5-min Rain = 0
KWA1 251717Z 17007KT 28/20 A3005 RMK A01 T02770201  RH  063%=      5-min Rain = 0
KWA1 251718Z 19009KT 28/20 A3004 RMK A01 T02790197  RH  061%=      5-min Rain = 0
KWA1 251719Z 17009KT 28/19 A3005 RMK A01 T02780194  RH  060%=      5-min Rain = 0
KWA1 251720Z 16007KT 28/19 A3005 RMK A01 T02780194  RH  061%=      5-min Rain = 0
KWA1 251721Z 17007KT 28/20 A3005 RMK A01 T02780197  RH  062%=      5-min Rain = 0
KWA1 251722Z 17007KT 28/20 A3005 RMK A01 T02790196  RH  061%=      5-min Rain = 0
KWA1 251723Z 18007KT 28/20 A3005 RMK A01 T02800198  RH  061%=      5-min Rain = 0
KWA1 251724Z 17010KT 28/20 A3005 RMK A01 T02810198  RH  061%=      5-min Rain = 0
KWA1 251725Z 17010KT 28/20 A3005 RMK A01 T02810197  RH  060%=      5-min Rain = 0
KWA1 251726Z 17009KT 28/19 A3005 RMK A01 T02800193  RH  059%=      5-min Rain = 0
KWA1 251727Z 18008KT 28/19 A3004 RMK A01 T02790191  RH  059%=      5-min Rain = 0
KWA1 251728Z 17005KT 28/19 A3004 RMK A01 T02780188  RH  058%=      5-min Rain = 0
KWA1 251729Z 19004KT 28/20 A3004 RMK A01 T02780197  RH  061%=      5-min Rain = 0
KWA1 251730Z 15009KT 28/20 A3004 RMK A01 T02790198  RH  061%=      5-min Rain = 0
KWA1 251731Z 15008KT 28/19 A3004 RMK A01 T02800192  RH  059%=      5-min Rain = 0
KWA1 251732Z 17007KT 28/19 A3004 RMK A01 T02790194  RH  060%=      5-min Rain = 0
KWA1 251733Z 16007KT 28/20 A3004 RMK A01 T02790195  RH  060%=      5-min Rain = 0
KWA1 251734Z 14007KT 28/20 A3004 RMK A01 T02800198  RH  061%=      5-min Rain = 0
KWA1 251735Z 16008KT 28/20 A3004 RMK A01 T02810195  RH  060%=      5-min Rain = 0
KWA1 251736Z 17008KT 28/19 A3004 RMK A01 T02800194  RH  060%=      5-min Rain = 0
KWA1 251737Z 15007KT 28/19 A3004 RMK A01 T02800193  RH  059%=      5-min Rain = 0
KWA1 251738Z 18007KT 28/21 A3004 RMK A01 T02810205  RH  063%=      5-min Rain = 0
KWA1 251739Z 19008KT 28/20 A3004 RMK A01 T02830197  RH  060%=      5-min Rain = 0
KWA1 251740Z 19007KT 28/19 A3004 RMK A01 T02830191  RH  058%=      5-min Rain = 0
KWA1 251741Z 19007KT 28/19 A3004 RMK A01 T02810189  RH  057%=      5-min Rain = 0
KWA1 251742Z 20010KT 28/19 A3004 RMK A01 T02800193  RH  059%=      5-min Rain = 0
KWA1 251743Z 20007KT 28/19 A3004 RMK A01 T02790194  RH  060%=      5-min Rain = 0
KWA1 251744Z 20005KT 28/20 A3004 RMK A01 T02810195  RH  060%=      5-min Rain = 0
KWA1 251745Z 17005KT 28/19 A3004 RMK A01 T02810190  RH  058%=      5-min Rain = 0
KWA1 251746Z 16006KT 28/19 A3004 RMK A01 T02810194  RH  059%=      5-min Rain = 0
KWA1 251747Z 17007KT 28/20 A3004 RMK A01 T02810195  RH  060%=      5-min Rain = 0
KWA1 251748Z 19005KT 28/20 A3004 RMK A01 T02820201  RH  061%=      5-min Rain = 0
KWA1 251749Z 19008KT 29/21 A3004 RMK A01 T02850206  RH  063%=      5-min Rain = 0
KWA1 251750Z 20008KT 29/20 A3004 RMK A01 T02870200  RH  060%=      5-min Rain = 0
KWA1 251751Z 18008KT 29/20 A3004 RMK A01 T02860197  RH  059%=      5-min Rain = 0
KWA1 251752Z 17006KT 29/21 A3004 RMK A01 T02860209  RH  063%=      5-min Rain = 0
KWA1 251753Z 18006KT 29/20 A3004 RMK A01 T02880200  RH  059%=      5-min Rain = 0
KWA1 251754Z 18008KT 29/20 A3004 RMK A01 T02890198  RH  058%=      5-min Rain = 0
KWA1 251755Z 17006KT 29/20 A3004 RMK A01 T02880199  RH  059%=      5-min Rain = 0
KWA1 251756Z 18008KT 29/20 A3004 RMK A01 T02880200  RH  059%=      5-min Rain = 0
KWA1 251757Z 18010KT 29/20 A3004 RMK A01 T02880196  RH  058%=      5-min Rain = 0
KWA1 251758Z 17009KT 29/20 A3004 RMK A01 T02870196  RH  058%=      5-min Rain = 0
KWA1 251759Z 16007KT 29/20 A3004 RMK A01 T02860195  RH  058%=      5-min Rain = 0
KWA1 251800Z 16007KT 29/19 A3004 RMK A01 T02850192  RH  057%=      5-min Rain = 0
KWA1 251801Z 16006KT 29/19 A3004 RMK A01 T02850193  RH  058%=      5-min Rain = 0
KWA1 251802Z 17006KT 28/19 A3004 RMK A01 T02840194  RH  058%=      5-min Rain = 0
KWA1 251803Z 17004KT 28/19 A3004 RMK A01 T02840191  RH  057%=      5-min Rain = 0
KWA1 251804Z 18008KT 28/20 A3004 RMK A01 T02840196  RH  059%=      5-min Rain = 0
KWA1 251805Z 18005KT 28/19 A3004 RMK A01 T02840189  RH  056%=      5-min Rain = 0
KWA1 251806Z 24002KT 28/18 A3004 RMK A01 T02820181  RH  054%=      5-min Rain = 0
KWA1 251807Z 24001KT 28/19 A3004 RMK A01 T02810189  RH  058%=      5-min Rain = 0
KWA1 251808Z 14002KT 28/19 A3004 RMK A01 T02810188  RH  057%=      5-min Rain = 0
KWA1 251809Z 15005KT 28/19 A3004 RMK A01 T02820191  RH  058%=      5-min Rain = 0
KWA1 251810Z 15005KT 28/20 A3004 RMK A01 T02830196  RH  059%=      5-min Rain = 0
KWA1 251811Z 14007KT 28/19 A3004 RMK A01 T02840193  RH  058%=      5-min Rain = 0
KWA1 251812Z 14006KT 28/20 A3004 RMK A01 T02840198  RH  059%=      5-min Rain = 0
KWA1 251813Z 13006KT 29/19 A3004 RMK A01 T02860191  RH  056%=      5-min Rain = 0
KWA1 251814Z 13006KT 29/19 A3004 RMK A01 T02860188  RH  056%=      5-min Rain = 0
KWA1 251815Z 14008KT 29/20 A3004 RMK A01 T02850199  RH  060%=      5-min Rain = 0
KWA1 251816Z 14008KT 29/20 A3003 RMK A01 T02860199  RH  059%=      5-min Rain = 0
KWA1 251817Z 17008KT 29/20 A3004 RMK A01 T02880203  RH  060%=      5-min Rain = 0
KWA1 251818Z 18006KT 29/20 A3003 RMK A01 T02890195  RH  057%=      5-min Rain = 0
KWA1 251819Z 16005KT 29/20 A3003 RMK A01 T02880200  RH  059%=      5-min Rain = 0
KWA1 251820Z 14006KT 29/20 A3003 RMK A01 T02890201  RH  059%=      5-min Rain = 0
KWA1 251821Z 17005KT 29/19 A3003 RMK A01 T02900194  RH  056%=      5-min Rain = 0
KWA1 251822Z 17003KT 29/20 A3003 RMK A01 T02880196  RH  057%=      5-min Rain = 0
KWA1 251823Z 17003KT 29/20 A3003 RMK A01 T02890199  RH  058%=      5-min Rain = 0
KWA1 251824Z 18005KT 29/20 A3003 RMK A01 T02900199  RH  058%=      5-min Rain = 0
KWA1 251825Z 20008KT 29/20 A3003 RMK A01 T02910196  RH  057%=      5-min Rain = 0
KWA1 251826Z 21008KT 29/19 A3003 RMK A01 T02900194  RH  056%=      5-min Rain = 0
KWA1 251827Z 21006KT 29/19 A3004 RMK A01 T02880192  RH  056%=      5-min Rain = 0
KWA1 251828Z 21004KT 29/19 A3003 RMK A01 T02860189  RH  056%=      5-min Rain = 0
KWA1 251829Z 17003KT 29/20 A3003 RMK A01 T02860195  RH  058%=      5-min Rain = 0
KWA1 251830Z 19003KT 29/20 A3003 RMK A01 T02870197  RH  058%=      5-min Rain = 0
KWA1 251831Z 16007KT 29/20 A3003 RMK A01 T02880198  RH  058%=      5-min Rain = 0
KWA1 251832Z 18010KT 29/21 A3003 RMK A01 T02910206  RH  060%=      5-min Rain = 0
KWA1 251833Z 17008KT 29/20 A3003 RMK A01 T02940201  RH  057%=      5-min Rain = 0
KWA1 251834Z 17008KT 30/20 A3003 RMK A01 T02950202  RH  057%=      5-min Rain = 0
KWA1 251835Z 15006KT 30/20 A3003 RMK A01 T02950195  RH  055%=      5-min Rain = 0
KWA1 251836Z 17004KT 29/20 A3003 RMK A01 T02930196  RH  056%=      5-min Rain = 0
KWA1 251837Z 19004KT 29/20 A3003 RMK A01 T02920197  RH  057%=      5-min Rain = 0
KWA1 251838Z 16003KT 29/20 A3003 RMK A01 T02930198  RH  057%=      5-min Rain = 0
KWA1 251839Z 15008KT 29/20 A3003 RMK A01 T02930201  RH  058%=      5-min Rain = 0
KWA1 251840Z 16006KT 29/20 A3003 RMK A01 T02940196  RH  055%=      5-min Rain = 0
KWA1 251841Z 16005KT 29/20 A3003 RMK A01 T02930202  RH  058%=      5-min Rain = 0
KWA1 251842Z 18007KT 30/20 A3003 RMK A01 T02950204  RH  058%=      5-min Rain = 0
KWA1 251843Z 19006KT 30/20 A3003 RMK A01 T02960202  RH  057%=      5-min Rain = 0
KWA1 251844Z 21004KT 30/20 A3003 RMK A01 T02960199  RH  056%=      5-min Rain = 0
KWA1 251845Z 22007KT 30/20 A3003 RMK A01 T02960203  RH  057%=      5-min Rain = 0
KWA1 251846Z 21007KT 30/20 A3002 RMK A01 T02960201  RH  057%=      5-min Rain = 0
KWA1 251847Z 18006KT 30/20 A3002 RMK A01 T02960202  RH  057%=      5-min Rain = 0
KWA1 251848Z 18007KT 30/20 A3002 RMK A01 T02960202  RH  057%=      5-min Rain = 0
KWA1 251849Z 18007KT 30/20 A3002 RMK A01 T02970204  RH  057%=      5-min Rain = 0
KWA1 251850Z 15009KT 30/21 A3002 RMK A01 T02990209  RH  058%=      5-min Rain = 0
KWA1 251851Z 14006KT 30/20 A3002 RMK A01 T03000203  RH  056%=      5-min Rain = 0
KWA1 251852Z 11005KT 30/21 A3002 RMK A01 T02980208  RH  059%=      5-min Rain = 0
KWA1 251853Z 13005KT 30/20 A3002 RMK A01 T02980203  RH  057%=      5-min Rain = 0
KWA1 251854Z 13004KT 30/20 A3002 RMK A01 T02980204  RH  057%=      5-min Rain = 0
KWA1 251855Z 13004KT 30/20 A3002 RMK A01 T02980204  RH  057%=      5-min Rain = 0
KWA1 251856Z 14003KT 30/20 A3002 RMK A01 T02980196  RH  054%=      5-min Rain = 0
KWA1 251857Z 10003KT 30/20 A3002 RMK A01 T02960202  RH  057%=      5-min Rain = 0
KWA1 251858Z 14004KT 30/20 A3002 RMK A01 T02960202  RH  057%=      5-min Rain = 0
KWA1 251859Z 15003KT 30/20 A3002 RMK A01 T02960195  RH  055%=      5-min Rain = 0
KWA1 251900Z 13001KT 30/20 A3002 RMK A01 T02950199  RH  056%=      5-min Rain = 0
KWA1 251901Z 15003KT 29/20 A3002 RMK A01 T02940200  RH  057%=      5-min Rain = 0
KWA1 251902Z 15005KT 30/20 A3002 RMK A01 T02960204  RH  058%=      5-min Rain = 0
KWA1 251903Z 11007KT 30/21 A3002 RMK A01 T02970207  RH  058%=      5-min Rain = 0
KWA1 251904Z 09007KT 30/21 A3002 RMK A01 T02980211  RH  059%=      5-min Rain = 0
KWA1 251905Z 09007KT 30/20 A3002 RMK A01 T02990201  RH  056%=      5-min Rain = 0
KWA1 251906Z 12008KT 30/21 A3002 RMK A01 T02970208  RH  059%=      5-min Rain = 0
KWA1 251907Z 10008KT 30/21 A3002 RMK A01 T02990205  RH  057%=      5-min Rain = 0
KWA1 251908Z 09006KT 30/20 A3002 RMK A01 T02990204  RH  057%=      5-min Rain = 0
KWA1 251909Z 10005KT 30/20 A3002 RMK A01 T02980200  RH  056%=      5-min Rain = 0
KWA1 251910Z 14007KT 30/21 A3002 RMK A01 T02970208  RH  059%=      5-min Rain = 0
KWA1 251911Z 15008KT 30/21 A3002 RMK A01 T02980205  RH  058%=      5-min Rain = 0
KWA1 251912Z 15008KT 30/20 A3002 RMK A01 T02990202  RH  056%=      5-min Rain = 0
KWA1 251913Z 15006KT 30/21 A3002 RMK A01 T03000207  RH  057%=      5-min Rain = 0
KWA1 251914Z 17004KT 30/21 A3001 RMK A01 T03000206  RH  057%=      5-min Rain = 0
KWA1 251915Z 15007KT 30/21 A3001 RMK A01 T03000209  RH  058%=      5-min Rain = 0
KWA1 251916Z 15009KT 30/21 A3001 RMK A01 T03010208  RH  057%=      5-min Rain = 0
KWA1 251917Z 15007KT 30/21 A3001 RMK A01 T03020206  RH  056%=      5-min Rain = 0
KWA1 251918Z 15006KT 30/21 A3001 RMK A01 T03010209  RH  058%=      5-min Rain = 0
KWA1 251919Z 15006KT 30/21 A3001 RMK A01 T03020206  RH  057%=      5-min Rain = 0
KWA1 251920Z 14005KT 30/21 A3001 RMK A01 T03020208  RH  057%=      5-min Rain = 0
KWA1 251921Z 15009KT 30/21 A3001 RMK A01 T03030212  RH  058%=      5-min Rain = 0
KWA1 251922Z 15009KT 30/21 A3001 RMK A01 T03040206  RH  056%=      5-min Rain = 0
KWA1 251923Z 14008KT 30/21 A3001 RMK A01 T03040208  RH  057%=      5-min Rain = 0
KWA1 251924Z 13008KT 30/21 A3001 RMK A01 T03040209  RH  057%=      5-min Rain = 0
KWA1 251925Z 13006KT 30/20 A3001 RMK A01 T03030204  RH  056%=      5-min Rain = 0
KWA1 251926Z 14008KT 30/21 A3001 RMK A01 T03010212  RH  059%=      5-min Rain = 0
KWA1 251927Z 13006KT 30/21 A3001 RMK A01 T03020207  RH  057%=      5-min Rain = 0
KWA1 251928Z 14006KT 30/21 A3001 RMK A01 T03000208  RH  058%=      5-min Rain = 0
KWA1 251929Z 12009KT 30/21 A3001 RMK A01 T03000208  RH  058%=      5-min Rain = 0
KWA1 251930Z 12007KT 30/21 A3001 RMK A01 T02990208  RH  058%=      5-min Rain = 0
KWA1 251931Z 13006KT 30/21 A3001 RMK A01 T03010212  RH  059%=      5-min Rain = 0
KWA1 251932Z 12007KT 30/21 A3001 RMK A01 T03020212  RH  058%=      5-min Rain = 0
KWA1 251933Z 14009KT 30/21 A3001 RMK A01 T03030209  RH  057%=      5-min Rain = 0
KWA1 251934Z 14009KT 30/21 A3001 RMK A01 T03030209  RH  057%=      5-min Rain = 0
KWA1 251935Z 12008KT 30/21 A3001 RMK A01 T03030211  RH  058%=      5-min Rain = 0
KWA1 251936Z 12007KT 30/21 A30 RMK A01 T03040213  RH  058%=      5-min Rain = 0
KWA1 251937Z 13008KT 31/21 A30 RMK A01 T03050214  RH  058%=      5-min Rain = 0
KWA1 251938Z 13013KT 31/21 A30 RMK A01 T03060210  RH  056%=      5-min Rain = 0
KWA1 251939Z 12010KT 31/21 A3001 RMK A01 T03060207  RH  056%=      5-min Rain = 0
KWA1 251940Z 14008KT 30/21 A3001 RMK A01 T03030205  RH  056%=      5-min Rain = 0
KWA1 251941Z 14006KT 30/20 A30 RMK A01 T03020204  RH  056%=      5-min Rain = 0
KWA1 251942Z 15005KT 30/21 A30 RMK A01 T03020205  RH  056%=      5-min Rain = 0
KWA1 251943Z 17006KT 30/21 A30 RMK A01 T03020209  RH  058%=      5-min Rain = 0
KWA1 251944Z 10005KT 30/21 A30 RMK A01 T03030211  RH  058%=      5-min Rain = 0
KWA1 251945Z 11006KT 30/21 A30 RMK A01 T03040212  RH  058%=      5-min Rain = 0
KWA1 251946Z 12005KT 30/21 A30 RMK A01 T03040208  RH  057%=      5-min Rain = 0
KWA1 251947Z 13003KT 30/21 A30 RMK A01 T03030206  RH  056%=      5-min Rain = 0
KWA1 251948Z 12007KT 30/21 A30 RMK A01 T03030209  RH  057%=      5-min Rain = 0
KWA1 251949Z 13008KT 30/21 A30 RMK A01 T03030209  RH  057%=      5-min Rain = 0
KWA1 251950Z 13009KT 31/21 A30 RMK A01 T03050212  RH  058%=      5-min Rain = 0
KWA1 251951Z 15010KT 31/21 A30 RMK A01 T03070212  RH  057%=      5-min Rain = 0
KWA1 251952Z 13007KT 31/21 A30 RMK A01 T03080210  RH  056%=      5-min Rain = 0
KWA1 251953Z 14008KT 31/21 A30 RMK A01 T03070210  RH  056%=      5-min Rain = 0
KWA1 251954Z 12008KT 31/21 A30 RMK A01 T03060212  RH  057%=      5-min Rain = 0
KWA1 251955Z 12009KT 31/22 A30 RMK A01 T03080217  RH  058%=      5-min Rain = 0
KWA1 251956Z 13008KT 31/21 A30 RMK A01 T03090210  RH  055%=      5-min Rain = 0
KWA1 251957Z 13007KT 31/21 A30 RMK A01 T03060207  RH  055%=      5-min Rain = 0
KWA1 251958Z 12005KT 30/21 A30 RMK A01 T03040206  RH  056%=      5-min Rain = 0
KWA1 251959Z 14005KT 30/21 A30 RMK A01 T03030213  RH  059%=      5-min Rain = 0
KWA1 252000Z 17006KT 31/21 A30 RMK A01 T03060212  RH  057%=      5-min Rain = 0
KWA1 252001Z 16007KT 31/21 A30 RMK A01 T03070212  RH  057%=      5-min Rain = 0
KWA1 252002Z 15011KT 31/21 A30 RMK A01 T03080213  RH  057%=      5-min Rain = 0
KWA1 252003Z 15009KT 31/22 A30 RMK A01 T03110215  RH  056%=      5-min Rain = 0
KWA1 252004Z 16009KT 31/21 A30 RMK A01 T03120209  RH  054%=      5-min Rain = 0
KWA1 252005Z 16006KT 31/21 A30 RMK A01 T03110208  RH  054%=      5-min Rain = 0
KWA1 252006Z 13010G15KT 31/21 A30 RMK A01 T03100213  RH  056%=      5-min Rain = 0
KWA1 252007Z 16009KT 31/21 A30 RMK A01 T03090207  RH  055%=      5-min Rain = 0
KWA1 252008Z 16008KT 31/21 A30 RMK A01 T03090208  RH  055%=      5-min Rain = 0
KWA1 252009Z 15005KT 31/21 A30 RMK A01 T03080206  RH  054%=      5-min Rain = 0
KWA1 252010Z 12010KT 31/21 A30 RMK A01 T03080214  RH  057%=      5-min Rain = 0
KWA1 252011Z 12009KT 31/21 A30 RMK A01 T03100206  RH  054%=      5-min Rain = 0
KWA1 252012Z 12007KT 31/21 A30 RMK A01 T03080206  RH  055%=      5-min Rain = 0
KWA1 252013Z 11006KT 31/21 A2999 RMK A01 T03060208  RH  056%=      5-min Rain = 0
KWA1 252014Z 12006KT 31/21 A2999 RMK A01 T03070210  RH  056%=      5-min Rain = 0
KWA1 252015Z 12009KT 31/21 A2999 RMK A01 T03080210  RH  056%=      5-min Rain = 0
KWA1 252016Z 12010KT 31/21 A2999 RMK A01 T03090212  RH  056%=      5-min Rain = 0
KWA1 252017Z 12009KT 31/21 A2999 RMK A01 T03110213  RH  056%=      5-min Rain = 0
KWA1 252018Z 12009KT 31/21 A2999 RMK A01 T03120212  RH  055%=      5-min Rain = 0
KWA1 252019Z 14011KT 31/21 A2999 RMK A01 T03120210  RH  055%=      5-min Rain = 0
KWA1 252020Z 15009KT 31/21 A2999 RMK A01 T03120208  RH  054%=      5-min Rain = 0
KWA1 252021Z 12006KT 31/21 A2999 RMK A01 T03110208  RH  054%=      5-min Rain = 0
KWA1 252022Z 12006KT 31/21 A2999 RMK A01 T03100210  RH  055%=      5-min Rain = 0
KWA1 252023Z 13010KT 31/21 A2999 RMK A01 T03100208  RH  055%=      5-min Rain = 0
KWA1 252024Z 13012KT 31/21 A2999 RMK A01 T03100207  RH  054%=      5-min Rain = 0
KWA1 252025Z 13009KT 31/21 A2999 RMK A01 T03090207  RH  055%=      5-min Rain = 0
KWA1 252026Z 14009KT 31/21 A2999 RMK A01 T03100210  RH  055%=      5-min Rain = 0
KWA1 252027Z 14006KT 31/20 A2999 RMK A01 T03110204  RH  053%=      5-min Rain = 0
KWA1 252028Z 13009KT 31/21 A2999 RMK A01 T03090205  RH  054%=      5-min Rain = 0
KWA1 252029Z 11008KT 31/20 A2999 RMK A01 T03080204  RH  054%=      5-min Rain = 0
KWA1 252030Z 11007KT 31/21 A2999 RMK A01 T03080205  RH  054%=      5-min Rain = 0
KWA1 252031Z 13009KT 31/21 A2999 RMK A01 T03080207  RH  055%=      5-min Rain = 0
KWA1 252032Z 12010KT 31/21 A2999 RMK A01 T03100213  RH  056%=      5-min Rain = 0
KWA1 252033Z 11010KT 31/21 A2999 RMK A01 T03140212  RH  055%=      5-min Rain = 0
KWA1 252034Z 13012KT 31/21 A2999 RMK A01 T03140211  RH  054%=      5-min Rain = 0
KWA1 252035Z 13011KT 31/21 A2999 RMK A01 T03140208  RH  053%=      5-min Rain = 0
KWA1 252036Z 13011KT 31/21 A2999 RMK A01 T03140206  RH  053%=      5-min Rain = 0
KWA1 252037Z 14009KT 31/21 A2999 RMK A01 T03120209  RH  054%=      5-min Rain = 0
KWA1 252038Z 15011KT 31/22 A2999 RMK A01 T03140218  RH  057%=      5-min Rain = 0
KWA1 252039Z 14012KT 32/22 A2999 RMK A01 T03190218  RH  055%=      5-min Rain = 0
KWA1 252040Z 13012KT 32/21 A2999 RMK A01 T03200209  RH  052%=      5-min Rain = 0
KWA1 252041Z 12012KT 32/21 A2999 RMK A01 T03180206  RH  051%=      5-min Rain = 0
KWA1 252042Z 11012KT 32/21 A2999 RMK A01 T03160206  RH  052%=      5-min Rain = 0
KWA1 252043Z 11008KT 31/21 A2999 RMK A01 T03140207  RH  053%=      5-min Rain = 0
KWA1 252044Z 12010KT 31/21 A2999 RMK A01 T03130205  RH  053%=      5-min Rain = 0
KWA1 252045Z 13010KT 31/20 A2999 RMK A01 T03130204  RH  053%=      5-min Rain = 0
KWA1 252046Z 13009KT 31/21 A2999 RMK A01 T03130206  RH  053%=      5-min Rain = 0
KWA1 252047Z 13011KT 31/20 A2999 RMK A01 T03140204  RH  052%=      5-min Rain = 0
KWA1 252048Z 13012KT 31/20 A2999 RMK A01 T03140204  RH  052%=      5-min Rain = 0
KWA1 252049Z 15008KT 31/21 A2999 RMK A01 T03140206  RH  053%=      5-min Rain = 0
KWA1 252050Z 14009KT 31/21 A2999 RMK A01 T03140209  RH  054%=      5-min Rain = 0
KWA1 252051Z 11011KT 32/21 A2999 RMK A01 T03160211  RH  054%=      5-min Rain = 0
KWA1 252052Z 11010KT 32/21 A2999 RMK A01 T03170207  RH  052%=      5-min Rain = 0
KWA1 252053Z 11010KT 32/21 A2999 RMK A01 T03150209  RH  054%=      5-min Rain = 0
KWA1 252054Z 11008KT 31/20 A2999 RMK A01 T03130204  RH  052%=      5-min Rain = 0
KWA1 252055Z 11008KT 31/21 A2999 RMK A01 T03130206  RH  053%=      5-min Rain = 0
KWA1 252056Z 13009KT 32/21 A2999 RMK A01 T03150214  RH  055%=      5-min Rain = 0
KWA1 252057Z 12008KT 32/21 A2999 RMK A01 T03180205  RH  051%=      5-min Rain = 0
KWA1 252058Z 12008KT 32/21 A2998 RMK A01 T03170207  RH  052%=      5-min Rain = 0
KWA1 252059Z 13008KT 32/21 A2998 RMK A01 T03170209  RH  053%=      5-min Rain = 0
KWA1 252100Z 11010KT 32/21 A2998 RMK A01 T03170210  RH  053%=      5-min Rain = 0
KWA1 252101Z 12011KT 32/21 A2998 RMK A01 T03170207  RH  052%=      5-min Rain = 0
KWA1 252102Z 12012KT 32/21 A2998 RMK A01 T03150207  RH  053%=      5-min Rain = 0
KWA1 252103Z 13010KT 32/21 A2998 RMK A01 T03150209  RH  053%=      5-min Rain = 0
KWA1 252104Z 14011KT 32/21 A2998 RMK A01 T03170210  RH  053%=      5-min Rain = 0
KWA1 252105Z 13012KT 32/21 A2998 RMK A01 T03170205  RH  051%=      5-min Rain = 0
KWA1 252106Z 12011KT 32/20 A2998 RMK A01 T03150203  RH  051%=      5-min Rain = 0
KWA1 252107Z 12010KT 32/20 A2998 RMK A01 T03150204  RH  052%=      5-min Rain = 0
KWA1 252108Z 13009KT 32/20 A2998 RMK A01 T03150203  RH  051%=      5-min Rain = 0
KWA1 252109Z 13010KT 32/21 A2998 RMK A01 T03160208  RH  053%=      5-min Rain = 0
KWA1 252110Z 13010KT 32/21 A2998 RMK A01 T03170206  RH  052%=      5-min Rain = 0
KWA1 252111Z 12012KT 32/21 A2998 RMK A01 T03190210  RH  053%=      5-min Rain = 0
KWA1 252112Z 12012KT 32/21 A2998 RMK A01 T03210206  RH  051%=      5-min Rain = 0
KWA1 252113Z 12011KT 32/21 A2998 RMK A01 T03210208  RH  051%=      5-min Rain = 0
KWA1 252114Z 12011KT 32/21 A2998 RMK A01 T03210205  RH  050%=      5-min Rain = 0
KWA1 252115Z 12009KT 32/20 A2998 RMK A01 T03210202  RH  049%=      5-min Rain = 0
KWA1 252116Z 12008KT 32/20 A2998 RMK A01 T03180201  RH  050%=      5-min Rain = 0
KWA1 252117Z 11010G15KT 32/21 A2998 RMK A01 T03170205  RH  052%=      5-min Rain = 0
KWA1 252118Z 12012KT 32/21 A2998 RMK A01 T03180206  RH  051%=      5-min Rain = 0
KWA1 252119Z 12011KT 32/21 A2998 RMK A01 T03210210  RH  052%=      5-min Rain = 0
KWA1 252120Z 13012KT 32/21 A2998 RMK A01 T03230205  RH  050%=      5-min Rain = 0
KWA1 252121Z 12011KT 32/20 A2998 RMK A01 T03210201  RH  049%=      5-min Rain = 0
KWA1 252122Z 12010KT 32/20 A2998 RMK A01 T03180199  RH  049%=      5-min Rain = 0
KWA1 252123Z 12011KT 32/20 A2998 RMK A01 T03180203  RH  051%=      5-min Rain = 0
KWA1 252124Z 12010KT 32/20 A2998 RMK A01 T03190200  RH  049%=      5-min Rain = 0
KWA1 252125Z 13010KT 32/20 A2998 RMK A01 T03180203  RH  050%=      5-min Rain = 0
KWA1 252126Z 14010KT 32/20 A2998 RMK A01 T03190201  RH  050%=      5-min Rain = 0
KWA1 252127Z 14010KT 32/20 A2998 RMK A01 T03200203  RH  050%=      5-min Rain = 0
KWA1 252128Z 14011KT 32/20 A2998 RMK A01 T03210202  RH  049%=      5-min Rain = 0
KWA1 252129Z 14012KT 32/21 A2998 RMK A01 T03210205  RH  051%=      5-min Rain = 0
KWA1 252130Z 14012KT 32/20 A2998 RMK A01 T03220200  RH  049%=      5-min Rain = 0
KWA1 252131Z 14013KT 32/20 A2998 RMK A01 T03220200  RH  048%=      5-min Rain = 0
KWA1 252132Z 14010KT 32/20 A2998 RMK A01 T03210195  RH  047%=      5-min Rain = 0
KWA1 252133Z 13010KT 32/20 A2998 RMK A01 T03190198  RH  049%=      5-min Rain = 0
KWA1 252134Z 14011KT 32/20 A2998 RMK A01 T03190196  RH  048%=      5-min Rain = 0
KWA1 252135Z 13009KT 32/20 A2998 RMK A01 T03190203  RH  050%=      5-min Rain = 0
KWA1 252136Z 12011KT 32/20 A2998 RMK A01 T03220202  RH  049%=      5-min Rain = 0
KWA1 252137Z 13010KT 32/20 A2997 RMK A01 T03230198  RH  048%=      5-min Rain = 0
KWA1 252138Z 14012KT 32/20 A2997 RMK A01 T03230200  RH  048%=      5-min Rain = 0
KWA1 252139Z 14013KT 32/20 A2997 RMK A01 T03230197  RH  047%=      5-min Rain = 0
KWA1 252140Z 13010KT 32/20 A2997 RMK A01 T03220195  RH  047%=      5-min Rain = 0
KWA1 252141Z 15010KT 32/20 A2997 RMK A01 T03200197  RH  048%=      5-min Rain = 0
KWA1 252142Z 14010KT 32/20 A2997 RMK A01 T03210199  RH  049%=      5-min Rain = 0
KWA1 252143Z 14011KT 32/20 A2997 RMK A01 T03220198  RH  048%=      5-min Rain = 0
KWA1 252144Z 14011KT 32/20 A2997 RMK A01 T03230201  RH  049%=      5-min Rain = 0
KWA1 252145Z 13012KT 32/20 A2997 RMK A01 T03220199  RH  048%=      5-min Rain = 0
KWA1 252146Z 12011KT 32/20 A2997 RMK A01 T03230198  RH  048%=      5-min Rain = 0
KWA1 252147Z 13011KT 32/20 A2997 RMK A01 T03230200  RH  048%=      5-min Rain = 0
KWA1 252148Z 12011KT 32/20 A2997 RMK A01 T03240199  RH  048%=      5-min Rain = 0
KWA1 252149Z 12011KT 32/20 A2997 RMK A01 T03220198  RH  048%=      5-min Rain = 0
KWA1 252150Z 14012KT 32/20 A2997 RMK A01 T03210200  RH  049%=      5-min Rain = 0
KWA1 252151Z 15012KT 32/20 A2997 RMK A01 T03210197  RH  048%=      5-min Rain = 0
KWA1 252152Z 15010KT 32/20 A2997 RMK A01 T03220199  RH  048%=      5-min Rain = 0
KWA1 252153Z 15010KT 32/20 A2997 RMK A01 T03220198  RH  048%=      5-min Rain = 0
KWA1 252154Z 16008KT 32/20 A2997 RMK A01 T03230196  RH  047%=      5-min Rain = 0
KWA1 252155Z 16009KT 32/20 A2997 RMK A01 T03210198  RH  048%=      5-min Rain = 0
KWA1 252156Z 16007KT 32/20 A2997 RMK A01 T03210197  RH  048%=      5-min Rain = 0
KWA1 252157Z 15006KT 32/19 A2997 RMK A01 T03210194  RH  047%=      5-min Rain = 0
KWA1 252158Z 16006KT 32/20 A2997 RMK A01 T03210201  RH  049%=      5-min Rain = 0
KWA1 252159Z 15010KT 32/20 A2997 RMK A01 T03220200  RH  049%=      5-min Rain = 0
KWA1 252200Z 15011KT 32/20 A2997 RMK A01 T03220197  RH  048%=      5-min Rain = 0
KWA1 252201Z 16010KT 32/20 A2997 RMK A01 T03220196  RH  047%=      5-min Rain = 0
KWA1 252202Z 16009KT 32/20 A2997 RMK A01 T03220195  RH  047%=      5-min Rain = 0
KWA1 252203Z 17009KT 32/20 A2997 RMK A01 T03220197  RH  048%=      5-min Rain = 0
KWA1 252204Z 15011G17KT 32/20 A2997 RMK A01 T03230202  RH  049%=      5-min Rain = 0
KWA1 252205Z 14012G20KT 33/21 A2997 RMK A01 T03260205  RH  049%=      5-min Rain = 0
KWA1 252206Z 13010KT 33/20 A2997 RMK A01 T03260201  RH  048%=      5-min Rain = 0
KWA1 252207Z 14011KT 32/20 A2997 RMK A01 T03230198  RH  047%=      5-min Rain = 0
KWA1 252208Z 13011KT 32/20 A2997 RMK A01 T03220197  RH  048%=      5-min Rain = 0
KWA1 252209Z 14012KT 32/20 A2997 RMK A01 T03220201  RH  049%=      5-min Rain = 0
KWA1 252210Z 15010KT 32/20 A2997 RMK A01 T03220196  RH  047%=      5-min Rain = 0
KWA1 252211Z 15012KT 32/20 A2997 RMK A01 T03220196  RH  048%=      5-min Rain = 0
KWA1 252212Z 14010KT 32/20 A2997 RMK A01 T03210196  RH  048%=      5-min Rain = 0
KWA1 252213Z 13008KT 32/20 A2997 RMK A01 T03220196  RH  047%=      5-min Rain = 0
KWA1 252214Z 13009KT 32/20 A2997 RMK A01 T03220196  RH  048%=      5-min Rain = 0
KWA1 252215Z 14011KT 32/20 A2997 RMK A01 T03210195  RH  047%=      5-min Rain = 0
KWA1 252216Z 14011KT 32/20 A2997 RMK A01 T03210195  RH  047%=      5-min Rain = 0
KWA1 252217Z 13010KT 32/20 A2997 RMK A01 T03200196  RH  048%=      5-min Rain = 0
KWA1 252218Z 13012KT 32/20 A2997 RMK A01 T03210198  RH  048%=      5-min Rain = 0
KWA1 252219Z 13010KT 32/19 A2997 RMK A01 T03210193  RH  047%=      5-min Rain = 0
KWA1 252220Z 15011KT 32/20 A2997 RMK A01 T03210197  RH  048%=      5-min Rain = 0
KWA1 252221Z 15010KT 32/19 A2997 RMK A01 T03200194  RH  047%=      5-min Rain = 0
KWA1 252222Z 15008KT 32/20 A2997 RMK A01 T03210196  RH  048%=      5-min Rain = 0
KWA1 252223Z 14007KT 32/19 A2997 RMK A01 T03210193  RH  047%=      5-min Rain = 0
KWA1 252224Z 13008KT 32/19 A2996 RMK A01 T03200193  RH  047%=      5-min Rain = 0
KWA1 252225Z 14011KT 32/20 A2996 RMK A01 T03200199  RH  049%=      5-min Rain = 0
KWA1 252226Z 15013KT 32/20 A2996 RMK A01 T03230203  RH  049%=      5-min Rain = 0
KWA1 252227Z 12012KT 33/20 A2997 RMK A01 T03250201  RH  048%=      5-min Rain = 0
KWA1 252228Z 13012KT 32/20 A2997 RMK A01 T03240198  RH  047%=      5-min Rain = 0
KWA1 252229Z 13010KT 32/20 A2997 RMK A01 T03220199  RH  048%=      5-min Rain = 0
KWA1 252230Z 13010KT 32/20 A2997 RMK A01 T03220198  RH  048%=      5-min Rain = 0
KWA1 252231Z 13010KT 32/20 A2997 RMK A01 T03220197  RH  048%=      5-min Rain = 0
KWA1 252232Z 12010KT 32/20 A2997 RMK A01 T03210198  RH  048%=      5-min Rain = 0
KWA1 252233Z 12010KT 32/20 A2997 RMK A01 T03200197  RH  048%=      5-min Rain = 0
KWA1 252234Z 12011KT 32/20 A2996 RMK A01 T03210196  RH  048%=      5-min Rain = 0
KWA1 252235Z 13012KT 32/20 A2996 RMK A01 T03210196  RH  048%=      5-min Rain = 0
KWA1 252236Z 12011KT 32/19 A2996 RMK A01 T03200193  RH  047%=      5-min Rain = 0
KWA1 252237Z 13013KT 32/19 A2996 RMK A01 T03200190  RH  046%=      5-min Rain = 0
KWA1 252238Z 12012KT 32/19 A2996 RMK A01 T03200190  RH  046%=      5-min Rain = 0
KWA1 252239Z 13011KT 32/19 A2996 RMK A01 T03200193  RH  047%=      5-min Rain = 0
KWA1 252240Z 13012KT 32/19 A2996 RMK A01 T03210194  RH  047%=      5-min Rain = 0
KWA1 252241Z 14010KT 32/20 A2996 RMK A01 T03210196  RH  047%=      5-min Rain = 0
KWA1 252242Z 15012KT 32/20 A2996 RMK A01 T03220199  RH  048%=      5-min Rain = 0
KWA1 252243Z 15011KT 32/20 A2996 RMK A01 T03230196  RH  047%=      5-min Rain = 0
KWA1 252244Z 15010KT 32/19 A2996 RMK A01 T03240193  RH  046%=      5-min Rain = 0
KWA1 252245Z 15009KT 32/19 A2996 RMK A01 T03220191  RH  046%=      5-min Rain = 0
KWA1 252246Z 15009KT 32/19 A2996 RMK A01 T03210194  RH  047%=      5-min Rain = 0
KWA1 252247Z 15008KT 32/20 A2996 RMK A01 T03220197  RH  048%=      5-min Rain = 0
KWA1 252248Z 14008KT 32/20 A2996 RMK A01 T03230196  RH  047%=      5-min Rain = 0
KWA1 252249Z 13009KT 32/20 A2996 RMK A01 T03230196  RH  047%=      5-min Rain = 0
KWA1 252250Z 13009KT 32/19 A2996 RMK A01 T03230194  RH  047%=      5-min Rain = 0
KWA1 252251Z 13011KT 32/19 A2996 RMK A01 T03220194  RH  047%=      5-min Rain = 0
KWA1 252252Z 12012KT 32/20 A2996 RMK A01 T03220195  RH  047%=      5-min Rain = 0
KWA1 252253Z 13012KT 32/19 A2996 RMK A01 T03220193  RH  047%=      5-min Rain = 0
KWA1 252254Z 13010KT 32/19 A2996 RMK A01 T03220192  RH  046%=      5-min Rain = 0
KWA1 252255Z 11011KT 32/19 A2996 RMK A01 T03220194  RH  047%=      5-min Rain = 0
KWA1 252256Z 13012KT 32/19 A2996 RMK A01 T03220192  RH  046%=      5-min Rain = 0
KWA1 252257Z 13011KT 32/19 A2996 RMK A01 T03220192  RH  046%=      5-min Rain = 0
KWA1 252258Z 13010KT 32/19 A2996 RMK A01 T03220191  RH  046%=      5-min Rain = 0
KWA1 252259Z 13010KT 32/19 A2996 RMK A01 T03200189  RH  046%=      5-min Rain = 0
KWA1 252300Z 13009KT 32/20 A2996 RMK A01 T03200195  RH  048%=      5-min Rain = 0
KWA1 252301Z 12010KT 32/19 A2996 RMK A01 T03230192  RH  046%=      5-min Rain = 0
KWA1 252302Z 12011KT 32/19 A2996 RMK A01 T03230190  RH  045%=      5-min Rain = 0
KWA1 252303Z 13011KT 32/19 A2996 RMK A01 T03220185  RH  044%=      5-min Rain = 0
KWA1 252304Z 13012KT 32/19 A2996 RMK A01 T03220191  RH  046%=      5-min Rain = 0
KWA1 252305Z 14011KT 32/19 A2996 RMK A01 T03210190  RH  046%=      5-min Rain = 0
KWA1 252306Z 13012KT 32/19 A2996 RMK A01 T03210189  RH  046%=      5-min Rain = 0
KWA1 252307Z 13011KT 32/19 A2996 RMK A01 T03210187  RH  045%=      5-min Rain = 0
KWA1 252308Z 13011KT 32/19 A2996 RMK A01 T03200187  RH  045%=      5-min Rain = 0
KWA1 252309Z 13010KT 32/19 A2996 RMK A01 T03210188  RH  045%=      5-min Rain = 0
KWA1 252310Z 12010KT 32/19 A2996 RMK A01 T03200187  RH  045%=      5-min Rain = 0
KWA1 252311Z 13009KT 32/19 A2996 RMK A01 T03200186  RH  045%=      5-min Rain = 0
KWA1 252312Z 12009KT 32/19 A2996 RMK A01 T03200192  RH  047%=      5-min Rain = 0
KWA1 252313Z 13010KT 32/19 A2996 RMK A01 T03220190  RH  046%=      5-min Rain = 0
KWA1 252314Z 11010KT 32/20 A2996 RMK A01 T03220195  RH  047%=      5-min Rain = 0
KWA1 252315Z 12010KT 32/19 A2996 RMK A01 T03230194  RH  046%=      5-min Rain = 0
KWA1 252316Z 11011KT 32/19 A2996 RMK A01 T03220193  RH  047%=      5-min Rain = 0
KWA1 252317Z 11009KT 32/19 A2996 RMK A01 T03210193  RH  047%=      5-min Rain = 0
KWA1 252318Z 11009KT 32/20 A2996 RMK A01 T03200195  RH  047%=      5-min Rain = 0
KWA1 252319Z 13009KT 32/20 A2996 RMK A01 T03220196  RH  048%=      5-min Rain = 0
KWA1 252320Z 13008KT 32/19 A2996 RMK A01 T03210190  RH  046%=      5-min Rain = 0
KWA1 252321Z 12010KT 32/20 A2996 RMK A01 T03210196  RH  048%=      5-min Rain = 0
KWA1 252322Z 13012KT 32/19 A2996 RMK A01 T03220190  RH  046%=      5-min Rain = 0
KWA1 252323Z 12011KT 32/19 A2996 RMK A01 T03220193  RH  046%=      5-min Rain = 0
KWA1 252324Z 12010KT 32/19 A2996 RMK A01 T03230192  RH  046%=      5-min Rain = 0
KWA1 252325Z 11011KT 32/19 A2996 RMK A01 T03230191  RH  046%=      5-min Rain = 0
KWA1 252326Z 11010KT 32/19 A2996 RMK A01 T03230189  RH  045%=      5-min Rain = 0
KWA1 252327Z 11012KT 32/19 A2996 RMK A01 T03220188  RH  045%=      5-min Rain = 0
KWA1 252328Z 12011KT 32/19 A2996 RMK A01 T03210189  RH  046%=      5-min Rain = 0
KWA1 252329Z 13011KT 32/19 A2996 RMK A01 T03210191  RH  046%=      5-min Rain = 0
KWA1 252330Z 13012KT 32/19 A2996 RMK A01 T03220188  RH  045%=      5-min Rain = 0
KWA1 252331Z 12011KT 32/19 A2996 RMK A01 T03220188  RH  045%=      5-min Rain = 0
KWA1 252332Z 13011KT 32/19 A2995 RMK A01 T03210188  RH  045%=      5-min Rain = 0
KWA1 252333Z 12009KT 32/19 A2995 RMK A01 T03210188  RH  045%=      5-min Rain = 0
KWA1 252334Z 13011KT 32/18 A2995 RMK A01 T03220184  RH  044%=      5-min Rain = 0
KWA1 252335Z 13010KT 32/19 A2995 RMK A01 T03210186  RH  045%=      5-min Rain = 0
KWA1 252336Z 14011KT 32/19 A2995 RMK A01 T03200190  RH  046%=      5-min Rain = 0
KWA1 252337Z 13011KT 32/19 A2995 RMK A01 T03200185  RH  045%=      5-min Rain = 0
KWA1 252338Z 13011KT 32/19 A2995 RMK A01 T03200186  RH  045%=      5-min Rain = 0
KWA1 252339Z 13010KT 32/19 A2995 RMK A01 T03200188  RH  046%=      5-min Rain = 0
KWA1 252340Z 13012KT 32/18 A2995 RMK A01 T03200184  RH  045%=      5-min Rain = 0
KWA1 252341Z 12012KT 32/18 A2995 RMK A01 T03200184  RH  044%=      5-min Rain = 0
KWA1 252342Z 13010KT 32/18 A2995 RMK A01 T03200183  RH  044%=      5-min Rain = 0
KWA1 252343Z 13011KT 32/19 A2995 RMK A01 T03200186  RH  045%=      5-min Rain = 0
KWA1 252344Z 13011KT 32/19 A2995 RMK A01 T03200187  RH  045%=      5-min Rain = 0
KWA1 252345Z 14011KT 32/19 A2995 RMK A01 T03200190  RH  046%=      5-min Rain = 0
KWA1 252346Z 14012KT 32/19 A2995 RMK A01 T03200187  RH  045%=      5-min Rain = 0
KWA1 252347Z 14012KT 32/19 A2995 RMK A01 T03200186  RH  045%=      5-min Rain = 0
KWA1 252348Z 13011KT 32/19 A2995 RMK A01 T03190186  RH  045%=      5-min Rain = 0
KWA1 252349Z 14011KT 32/19 A2995 RMK A01 T03190185  RH  045%=      5-min Rain = 0
KWA1 252350Z 14010KT 32/18 A2995 RMK A01 T03190184  RH  045%=      5-min Rain = 0
KWA1 252351Z 14011KT 32/19 A2995 RMK A01 T03180185  RH  045%=      5-min Rain = 0
KWA1 252352Z 13010KT 32/19 A2995 RMK A01 T03180189  RH  046%=      5-min Rain = 0
KWA1 252353Z 13012KT 32/19 A2995 RMK A01 T03190187  RH  046%=      5-min Rain = 0
KWA1 252354Z 13012KT 32/19 A2995 RMK A01 T03190189  RH  046%=      5-min Rain = 0
KWA1 252355Z 13013KT 32/19 A2995 RMK A01 T03180191  RH  047%=      5-min Rain = 0
KWA1 252356Z 13013KT 32/19 A2995 RMK A01 T03180187  RH  046%=      5-min Rain = 0
KWA1 252357Z 12011KT 32/19 A2995 RMK A01 T03180187  RH  046%=      5-min Rain = 0
KWA1 252358Z 12012KT 32/19 A2995 RMK A01 T03180189  RH  046%=      5-min Rain = 0
KWA1 252359Z 12012KT 32/19 A2995 RMK A01 T03180188  RH  046%=      5-min Rain = 0
KWA1 260000Z 13011KT 32/19 A2995 RMK A01 T03170189  RH  047%=      5-min Rain = 0
KWA1 260001Z 12010KT 32/19 A2995 RMK A01 T03160192  RH  048%=      5-min Rain = 0
KWA1 260002Z 12012KT 32/19 A2995 RMK A01 T03160190  RH  047%=      5-min Rain = 0
KWA1 260003Z 13010KT 32/19 A2995 RMK A01 T03170192  RH  048%=      5-min Rain = 0
KWA1 260004Z 12013KT 32/19 A2995 RMK A01 T03170189  RH  047%=      5-min Rain = 0
KWA1 260005Z 12012KT 32/19 A2995 RMK A01 T03160188  RH  047%=      5-min Rain = 0
KWA1 260006Z 12010KT 32/19 A2995 RMK A01 T03160190  RH  047%=      5-min Rain = 0
KWA1 260007Z 12011KT 32/19 A2995 RMK A01 T03160189  RH  047%=      5-min Rain = 0
KWA1 260008Z 12009KT 32/19 A2995 RMK A01 T03160190  RH  047%=      5-min Rain = 0
KWA1 260009Z 13009KT 32/19 A2995 RMK A01 T03160190  RH  047%=      5-min Rain = 0
KWA1 260010Z 12008KT 32/19 A2995 RMK A01 T03160187  RH  046%=      5-min Rain = 0
KWA1 260011Z 12009KT 32/19 A2995 RMK A01 T03160192  RH  048%=      5-min Rain = 0
KWA1 260012Z 12009KT 32/19 A2995 RMK A01 T03160192  RH  048%=      5-min Rain = 0
KWA1 260013Z 12010KT 32/19 A2995 RMK A01 T03160193  RH  048%=      5-min Rain = 0
KWA1 260014Z 12009KT 32/19 A2995 RMK A01 T03160191  RH  048%=      5-min Rain = 0
KWA1 260015Z 12008KT 32/20 A2995 RMK A01 T03160196  RH  049%=      5-min Rain = 0
KWA1 260016Z 12007KT 32/20 A2995 RMK A01 T03160198  RH  050%=      5-min Rain = 0
KWA1 260017Z 13008KT 32/20 A2995 RMK A01 T03160196  RH  049%=      5-min Rain = 0
KWA1 260018Z 13010KT 32/19 A2995 RMK A01 T03160194  RH  048%=      5-min Rain = 0
KWA1 260019Z 13010KT 32/19 A2995 RMK A01 T03150193  RH  048%=      5-min Rain = 0
KWA1 260020Z 13010KT 31/19 A2995 RMK A01 T03140192  RH  048%=      5-min Rain = 0
KWA1 260021Z 13010KT 31/19 A2995 RMK A01 T03140189  RH  047%=      5-min Rain = 0
KWA1 260022Z 12010KT 31/19 A2995 RMK A01 T03140189  RH  048%=      5-min Rain = 0
KWA1 260023Z 12011KT 31/19 A2995 RMK A01 T03140189  RH  048%=      5-min Rain = 0
KWA1 260024Z 13011KT 31/19 A2994 RMK A01 T03130189  RH  048%=      5-min Rain = 0
KWA1 260025Z 12009KT 31/19 A2994 RMK A01 T03130192  RH  048%=      5-min Rain = 0
KWA1 260026Z 13009KT 31/19 A2994 RMK A01 T03130191  RH  048%=      5-min Rain = 0
KWA1 260027Z 13010KT 31/19 A2995 RMK A01 T03130191  RH  048%=      5-min Rain = 0
KWA1 260028Z 13009KT 31/19 A2995 RMK A01 T03130191  RH  048%=      5-min Rain = 0
KWA1 260029Z 12009KT 31/19 A2995 RMK A01 T03130193  RH  049%=      5-min Rain = 0
KWA1 260030Z 13010KT 31/19 A2995 RMK A01 T03130190  RH  048%=      5-min Rain = 0
KWA1 260031Z 13008KT 31/19 A2995 RMK A01 T03120193  RH  049%=      5-min Rain = 0
KWA1 260032Z 13009KT 31/20 A2995 RMK A01 T03120195  RH  050%=      5-min Rain = 0
KWA1 260033Z 13009KT 31/20 A2995 RMK A01 T03120195  RH  050%=      5-min Rain = 0
KWA1 260034Z 13011KT 31/19 A2995 RMK A01 T03110193  RH  049%=      5-min Rain = 0
KWA1 260035Z 13009KT 31/19 A2995 RMK A01 T03110192  RH  049%=      5-min Rain = 0
KWA1 260036Z 13009KT 31/19 A2995 RMK A01 T03100194  RH  050%=      5-min Rain = 0
KWA1 260037Z 13009KT 31/19 A2995 RMK A01 T03100194  RH  050%=      5-min Rain = 0
KWA1 260038Z 13009KT 31/19 A2995 RMK A01 T03100193  RH  050%=      5-min Rain = 0
KWA1 260039Z 13009KT 31/19 A2995 RMK A01 T03100191  RH  049%=      5-min Rain = 0
KWA1 260040Z 13010KT 31/19 A2995 RMK A01 T03100189  RH  049%=      5-min Rain = 0
KWA1 260041Z 13009KT 31/19 A2995 RMK A01 T03100189  RH  049%=      5-min Rain = 0
KWA1 260042Z 13008KT 31/19 A2995 RMK A01 T03100191  RH  049%=      5-min Rain = 0
KWA1 260043Z 13008KT 31/19 A2995 RMK A01 T03090192  RH  050%=      5-min Rain = 0
KWA1 260044Z 13009KT 31/19 A2995 RMK A01 T03090192  RH  050%=      5-min Rain = 0
KWA1 260045Z 13008KT 31/19 A2995 RMK A01 T03080193  RH  050%=      5-min Rain = 0
KWA1 260046Z 13008KT 31/20 A2995 RMK A01 T03080196  RH  051%=      5-min Rain = 0
KWA1 260047Z 13009KT 31/20 A2995 RMK A01 T03070195  RH  051%=      5-min Rain = 0
KWA1 260048Z 13008KT 31/19 A2995 RMK A01 T03070194  RH  051%=      5-min Rain = 0
KWA1 260049Z 13008KT 31/20 A2995 RMK A01 T03060195  RH  051%=      5-min Rain = 0
KWA1 260050Z 12008KT 31/20 A2995 RMK A01 T03060196  RH  052%=      5-min Rain = 0
KWA1 260051Z 12008KT 31/20 A2995 RMK A01 T03060196  RH  052%=      5-min Rain = 0
KWA1 260052Z 13007KT 31/20 A2995 RMK A01 T03060195  RH  052%=      5-min Rain = 0
KWA1 260053Z 12008KT 31/20 A2995 RMK A01 T03050196  RH  052%=      5-min Rain = 0
KWA1 260054Z 12008KT 31/20 A2995 RMK A01 T03050198  RH  053%=      5-min Rain = 0
KWA1 260055Z 13007KT 31/20 A2995 RMK A01 T03050196  RH  052%=      5-min Rain = 0
KWA1 260056Z 13007KT 31/20 A2995 RMK A01 T03050198  RH  053%=      5-min Rain = 0
KWA1 260057Z 13007KT 31/20 A2995 RMK A01 T03050198  RH  053%=      5-min Rain = 0
KWA1 260058Z 13007KT 30/20 A2995 RMK A01 T03040200  RH  054%=      5-min Rain = 0
KWA1 260059Z 13007KT 30/20 A2995 RMK A01 T03040198  RH  053%=      5-min Rain = 0
KWA1 260100Z 12007KT 30/20 A2995 RMK A01 T03030198  RH  053%=      5-min Rain = 0
KWA1 260101Z 13006KT 30/20 A2996 RMK A01 T03030200  RH  054%=      5-min Rain = 0
KWA1 260102Z 12006KT 30/20 A2996 RMK A01 T03030201  RH  054%=      5-min Rain = 0
KWA1 260103Z 13007KT 30/20 A2996 RMK A01 T03020200  RH  054%=      5-min Rain = 0
KWA1 260104Z 13007KT 30/20 A2996 RMK A01 T03020199  RH  054%=      5-min Rain = 0
KWA1 260105Z 13006KT 30/20 A2996 RMK A01 T03010199  RH  054%=      5-min Rain = 0
KWA1 260106Z 13007KT 30/20 A2996 RMK A01 T03010200  RH  055%=      5-min Rain = 0
KWA1 260107Z 13006KT 30/20 A2996 RMK A01 T03010200  RH  055%=      5-min Rain = 0
KWA1 260108Z 13006KT 30/20 A2996 RMK A01 T03000199  RH  055%=      5-min Rain = 0
KWA1 260109Z 13007KT 30/20 A2996 RMK A01 T03000199  RH  055%=      5-min Rain = 0
KWA1 260110Z 13006KT 30/20 A2996 RMK A01 T03000200  RH  055%=      5-min Rain = 0
KWA1 260111Z 13007KT 30/20 A2996 RMK A01 T03000201  RH  055%=      5-min Rain = 0
KWA1 260112Z 13007KT 30/20 A2996 RMK A01 T02990200  RH  055%=      5-min Rain = 0
KWA1 260113Z 13007KT 30/20 A2996 RMK A01 T02990201  RH  056%=      5-min Rain = 0
KWA1 260114Z 13007KT 30/20 A2996 RMK A01 T02980202  RH  056%=      5-min Rain = 0
KWA1 260115Z 13007KT 30/20 A2996 RMK A01 T02980202  RH  056%=      5-min Rain = 0
KWA1 260116Z 13007KT 30/20 A2997 RMK A01 T02980203  RH  057%=      5-min Rain = 0
KWA1 260117Z 14008KT 30/20 A2997 RMK A01 T02970202  RH  057%=      5-min Rain = 0
KWA1 260118Z 14007KT 30/20 A2997 RMK A01 T02960203  RH  057%=      5-min Rain = 0
KWA1 260119Z 14006KT 30/21 A2997 RMK A01 T02960206  RH  059%=      5-min Rain = 0
KWA1 260120Z 14008KT 30/20 A2997 RMK A01 T02950203  RH  058%=      5-min Rain = 0
KWA1 260121Z 14010KT 30/20 A2997 RMK A01 T02950199  RH  056%=      5-min Rain = 0
KWA1 260122Z 14010KT 30/20 A2997 RMK A01 T02950197  RH  056%=      5-min Rain = 0
KWA1 260123Z 14010KT 30/20 A2997 RMK A01 T02950197  RH  056%=      5-min Rain = 0
KWA1 260124Z 14009KT 30/20 A2997 RMK A01 T02950198  RH  056%=      5-min Rain = 0
KWA1 260125Z 14008KT 30/20 A2997 RMK A01 T02950199  RH  056%=      5-min Rain = 0
KWA1 260126Z 14008KT 30/20 A2997 RMK A01 T02950198  RH  056%=      5-min Rain = 0
KWA1 260127Z 14009KT 29/20 A2997 RMK A01 T02940198  RH  056%=      5-min Rain = 0
KWA1 260128Z 14009KT 29/20 A2997 RMK A01 T02940197  RH  056%=      5-min Rain = 0
KWA1 260129Z 14008KT 29/20 A2997 RMK A01 T02940197  RH  056%=      5-min Rain = 0
KWA1 260130Z 14008KT 29/20 A2997 RMK A01 T02930197  RH  056%=      5-min Rain = 0
KWA1 260131Z 14008KT 29/20 A2997 RMK A01 T02920197  RH  056%=      5-min Rain = 0
KWA1 260132Z 14008KT 29/20 A2997 RMK A01 T02920197  RH  057%=      5-min Rain = 0
KWA1 260133Z 14009KT 29/20 A2997 RMK A01 T02910196  RH  056%=      5-min Rain = 0
KWA1 260134Z 14009KT 29/20 A2997 RMK A01 T02910196  RH  057%=      5-min Rain = 0
KWA1 260135Z 14008KT 29/20 A2997 RMK A01 T02910197  RH  057%=      5-min Rain = 0
KWA1 260136Z 15009KT 29/20 A2997 RMK A01 T02900197  RH  057%=      5-min Rain = 0
KWA1 260137Z 14009KT 29/20 A2997 RMK A01 T02900197  RH  058%=      5-min Rain = 0
KWA1 260138Z 15009KT 29/20 A2997 RMK A01 T02890198  RH  058%=      5-min Rain = 0
KWA1 260139Z 15008KT 29/20 A2997 RMK A01 T02880199  RH  059%=      5-min Rain = 0
KWA1 260140Z 15008KT 29/20 A2997 RMK A01 T02860199  RH  059%=      5-min Rain = 0
KWA1 260141Z 15008KT 29/20 A2997 RMK A01 T02860199  RH  059%=      5-min Rain = 0
KWA1 260142Z 14008KT 29/20 A2997 RMK A01 T02850199  RH  060%=      5-min Rain = 0
KWA1 260143Z 14009KT 28/20 A2997 RMK A01 T02840199  RH  060%=      5-min Rain = 0
KWA1 260144Z 14009KT 28/20 A2997 RMK A01 T02840199  RH  060%=      5-min Rain = 0
KWA1 260145Z 14008KT 28/20 A2997 RMK A01 T02830199  RH  060%=      5-min Rain = 0
KWA1 260146Z 14008KT 28/20 A2997 RMK A01 T02830199  RH  060%=      5-min Rain = 0
KWA1 260147Z 14008KT 28/20 A2997 RMK A01 T02820199  RH  060%=      5-min Rain = 0
KWA1 260148Z 14008KT 28/20 A2997 RMK A01 T02820198  RH  060%=      5-min Rain = 0
KWA1 260149Z 14008KT 28/20 A2997 RMK A01 T02820199  RH  061%=      5-min Rain = 0
KWA1 260150Z 14008KT 28/20 A2997 RMK A01 T02810199  RH  061%=      5-min Rain = 0
KWA1 260151Z 14007KT 28/20 A2997 RMK A01 T02810200  RH  062%=      5-min Rain = 0
KWA1 260152Z 14008KT 28/20 A2997 RMK A01 T02800200  RH  062%=      5-min Rain = 0
KWA1 260153Z 14008KT 28/20 A2997 RMK A01 T02800200  RH  062%=      5-min Rain = 0
KWA1 260154Z 14008KT 28/20 A2997 RMK A01 T02790200  RH  062%=      5-min Rain = 0
KWA1 260155Z 14007KT 28/20 A2997 RMK A01 T02790200  RH  062%=      5-min Rain = 0
KWA1 260156Z 14008KT 28/20 A2997 RMK A01 T02780201  RH  063%=      5-min Rain = 0
KWA1 260157Z 14008KT 28/20 A2998 RMK A01 T02770200  RH  063%=      5-min Rain = 0
KWA1 260158Z 14007KT 28/20 A2998 RMK A01 T02770199  RH  063%=      5-min Rain = 0
KWA1 260159Z 14008KT 28/20 A2998 RMK A01 T02780200  RH  063%=      5-min Rain = 0
KWA1 260200Z 14007KT 28/20 A2998 RMK A01 T02770200  RH  063%=      5-min Rain = 0
KWA1 260201Z 14008KT 28/20 A2998 RMK A01 T02770201  RH  063%=      5-min Rain = 0
KWA1 260202Z 14008KT 28/20 A2998 RMK A01 T02770199  RH  063%=      5-min Rain = 0
KWA1 260203Z 14008KT 28/20 A2998 RMK A01 T02770200  RH  063%=      5-min Rain = 0
KWA1 260204Z 14008KT 28/20 A2998 RMK A01 T02760200  RH  063%=      5-min Rain = 0
KWA1 260205Z 14008KT 28/20 A2998 RMK A01 T02760201  RH  063%=      5-min Rain = 0
KWA1 260206Z 14008KT 28/20 A2998 RMK A01 T02760201  RH  064%=      5-min Rain = 0
KWA1 260207Z 14008KT 28/20 A2998 RMK A01 T02750201  RH  064%=      5-min Rain = 0
KWA1 260208Z 14008KT 27/20 A2998 RMK A01 T02740201  RH  064%=      5-min Rain = 0
KWA1 260209Z 14008KT 27/20 A2998 RMK A01 T02740201  RH  064%=      5-min Rain = 0
KWA1 260210Z 14007KT 27/20 A2998 RMK A01 T02740201  RH  065%=      5-min Rain = 0
KWA1 260211Z 14007KT 27/20 A2998 RMK A01 T02730202  RH  065%=      5-min Rain = 0
KWA1 260212Z 14008KT 27/20 A2998 RMK A01 T02730202  RH  065%=      5-min Rain = 0
KWA1 260213Z 14007KT 27/20 A2998 RMK A01 T02720203  RH  066%=      5-min Rain = 0
KWA1 260214Z 14007KT 27/20 A2998 RMK A01 T02710202  RH  066%=      5-min Rain = 0
KWA1 260215Z 14007KT 27/20 A2998 RMK A01 T02710202  RH  066%=      5-min Rain = 0
KWA1 260216Z 14008KT 27/20 A2998 RMK A01 T02710201  RH  065%=      5-min Rain = 0
KWA1 260217Z 15008KT 27/20 A2998 RMK A01 T02710200  RH  065%=      5-min Rain = 0
KWA1 260218Z 14008KT 27/20 A2998 RMK A01 T02710200  RH  065%=      5-min Rain = 0
KWA1 260219Z 15008KT 27/20 A2999 RMK A01 T02710201  RH  065%=      5-min Rain = 0
KWA1 260220Z 15008KT 27/20 A2999 RMK A01 T02710201  RH  065%=      5-min Rain = 0
KWA1 260221Z 15008KT 27/20 A2999 RMK A01 T02710201  RH  066%=      5-min Rain = 0
KWA1 260222Z 15008KT 27/20 A2998 RMK A01 T02700201  RH  066%=      5-min Rain = 0
KWA1 260223Z 15008KT 27/20 A2998 RMK A01 T02700202  RH  066%=      5-min Rain = 0
KWA1 260224Z 15008KT 27/20 A2998 RMK A01 T02690201  RH  066%=      5-min Rain = 0
KWA1 260225Z 15008KT 27/20 A2998 RMK A01 T02690202  RH  067%=      5-min Rain = 0
KWA1 260226Z 15008KT 27/20 A2998 RMK A01 T02680201  RH  067%=      5-min Rain = 0
KWA1 260227Z 15007KT 27/20 A2998 RMK A01 T02670201  RH  067%=      5-min Rain = 0
KWA1 260228Z 15008KT 27/20 A2998 RMK A01 T02670201  RH  067%=      5-min Rain = 0
KWA1 260229Z 15007KT 27/20 A2998 RMK A01 T02670201  RH  067%=      5-min Rain = 0
KWA1 260230Z 15007KT 27/20 A2999 RMK A01 T02660201  RH  067%=      5-min Rain = 0
KWA1 260231Z 15007KT 27/20 A2999 RMK A01 T02660201  RH  068%=      5-min Rain = 0
KWA1 260232Z 15007KT 27/20 A2999 RMK A01 T02650201  RH  068%=      5-min Rain = 0
KWA1 260233Z 15007KT 26/20 A2999 RMK A01 T02640201  RH  068%=      5-min Rain = 0
KWA1 260234Z 15006KT 26/20 A2999 RMK A01 T02630201  RH  068%=      5-min Rain = 0
KWA1 260235Z 15006KT 26/20 A2999 RMK A01 T02630201  RH  069%=      5-min Rain = 0
KWA1 260236Z 15007KT 26/20 A2999 RMK A01 T02630201  RH  069%=      5-min Rain = 0
KWA1 260237Z 15007KT 26/20 A2999 RMK A01 T02620200  RH  069%=      5-min Rain = 0
KWA1 260238Z 14007KT 26/20 A2999 RMK A01 T02620200  RH  069%=      5-min Rain = 0
KWA1 260239Z 14006KT 26/20 A2999 RMK A01 T02620201  RH  069%=      5-min Rain = 0
KWA1 260240Z 14007KT 26/20 A2999 RMK A01 T02620201  RH  069%=      5-min Rain = 0
KWA1 260241Z 15007KT 26/20 A2999 RMK A01 T02610199  RH  069%=      5-min Rain = 0
KWA1 260242Z 14007KT 26/20 A2999 RMK A01 T02610199  RH  069%=      5-min Rain = 0
KWA1 260243Z 14006KT 26/20 A2999 RMK A01 T02620199  RH  069%=      5-min Rain = 0
KWA1 260244Z 14006KT 26/20 A2999 RMK A01 T02620200  RH  069%=      5-min Rain = 0
KWA1 260245Z 14006KT 26/20 A2999 RMK A01 T02620201  RH  069%=      5-min Rain = 0
KWA1 260246Z 14006KT 26/20 A2999 RMK A01 T02610201  RH  070%=      5-min Rain = 0
KWA1 260247Z 14006KT 26/20 A2999 RMK A01 T02600202  RH  070%=      5-min Rain = 0
KWA1 260248Z 14006KT 26/20 A30 RMK A01 T02600202  RH  070%=      5-min Rain = 0
KWA1 260249Z 14006KT 26/20 A30 RMK A01 T02590201  RH  070%=      5-min Rain = 0
KWA1 260250Z 14006KT 26/20 A30 RMK A01 T02590202  RH  071%=      5-min Rain = 0
KWA1 260251Z 14006KT 26/20 A30 RMK A01 T02590202  RH  071%=      5-min Rain = 0
KWA1 260252Z 14006KT 26/20 A30 RMK A01 T02590203  RH  072%=      5-min Rain = 0
KWA1 260253Z 14006KT 26/20 A30 RMK A01 T02580203  RH  072%=      5-min Rain = 0
KWA1 260254Z 14006KT 26/20 A30 RMK A01 T02570203  RH  072%=      5-min Rain = 0
KWA1 260255Z 14006KT 26/20 A30 RMK A01 T02560202  RH  072%=      5-min Rain = 0
KWA1 260256Z 14007KT 26/20 A30 RMK A01 T02560202  RH  072%=      5-min Rain = 0
KWA1 260257Z 14007KT 26/20 A30 RMK A01 T02560201  RH  071%=      5-min Rain = 0
KWA1 260258Z 14007KT 26/20 A30 RMK A01 T02570201  RH  071%=      5-min Rain = 0
KWA1 260259Z 15006KT 26/20 A30 RMK A01 T02570201  RH  071%=      5-min Rain = 0
KWA1 260300Z 15007KT 26/20 A30 RMK A01 T02570201  RH  071%=      5-min Rain = 0
KWA1 260301Z 14006KT 26/20 A30 RMK A01 T02570201  RH  071%=      5-min Rain = 0
KWA1 260302Z 14007KT 26/20 A30 RMK A01 T02570202  RH  072%=      5-min Rain = 0
KWA1 260303Z 14007KT 26/20 A30 RMK A01 T02560201  RH  072%=      5-min Rain = 0
KWA1 260304Z 13007KT 26/20 A30 RMK A01 T02560201  RH  072%=      5-min Rain = 0
KWA1 260305Z 13007KT 26/20 A30 RMK A01 T02560203  RH  073%=      5-min Rain = 0
KWA1 260306Z 13006KT 25/21 A30 RMK A01 T02540205  RH  074%=      5-min Rain = 0
KWA1 260307Z 13007KT 25/21 A3001 RMK A01 T02530206  RH  075%=      5-min Rain = 0
KWA1 260308Z 13007KT 25/21 A3001 RMK A01 T02510206  RH  076%=      5-min Rain = 0
KWA1 260309Z 13007KT 25/21 A3001 RMK A01 T02500205  RH  076%=      5-min Rain = 0
KWA1 260310Z 14006KT 25/21 A3001 RMK A01 T02500205  RH  076%=      5-min Rain = 0
KWA1 260311Z 14007KT 25/21 A3001 RMK A01 T02500205  RH  076%=      5-min Rain = 0
KWA1 260312Z 14007KT 25/21 A3001 RMK A01 T02490205  RH  076%=      5-min Rain = 0
KWA1 260313Z 14007KT 25/20 A3001 RMK A01 T02500204  RH  076%=      5-min Rain = 0
KWA1 260314Z 13007KT 25/21 A3001 RMK A01 T02500205  RH  076%=      5-min Rain = 0
KWA1 260315Z 13007KT 25/21 A3001 RMK A01 T02510207  RH  077%=      5-min Rain = 0
KWA1 260316Z 13007KT 25/21 A3001 RMK A01 T02500207  RH  077%=      5-min Rain = 0
KWA1 260317Z 14007KT 25/21 A3001 RMK A01 T02490206  RH  077%=      5-min Rain = 0
KWA1 260318Z 14007KT 25/21 A3001 RMK A01 T02490206  RH  077%=      5-min Rain = 0
KWA1 260319Z 14007KT 25/20 A3001 RMK A01 T02490204  RH  076%=      5-min Rain = 0
KWA1 260320Z 14006KT 25/20 A3002 RMK A01 T02490204  RH  076%=      5-min Rain = 0
KWA1 260321Z 14007KT 25/20 A3002 RMK A01 T02490204  RH  076%=      5-min Rain = 0
KWA1 260322Z 14007KT 25/20 A3002 RMK A01 T02500202  RH  075%=      5-min Rain = 0
KWA1 260323Z 14007KT 25/20 A3002 RMK A01 T02500202  RH  075%=      5-min Rain = 0
KWA1 260324Z 14007KT 25/20 A3002 RMK A01 T02510202  RH  074%=      5-min Rain = 0
KWA1 260325Z 14007KT 25/20 A3002 RMK A01 T02520202  RH  074%=      5-min Rain = 0
KWA1 260326Z 14006KT 25/20 A3002 RMK A01 T02510202  RH  074%=      5-min Rain = 0
KWA1 260327Z 14007KT 25/20 A3002 RMK A01 T02510202  RH  074%=      5-min Rain = 0
KWA1 260328Z 14006KT 25/20 A3002 RMK A01 T02520202  RH  074%=      5-min Rain = 0
KWA1 260329Z 14007KT 25/20 A3002 RMK A01 T02510202  RH  074%=      5-min Rain = 0
KWA1 260330Z 14007KT 25/20 A3002 RMK A01 T02510202  RH  074%=      5-min Rain = 0
KWA1 260331Z 15006KT 25/20 A3003 RMK A01 T02510202  RH  074%=      5-min Rain = 0
KWA1 260332Z 14006KT 25/20 A3003 RMK A01 T02510202  RH  074%=      5-min Rain = 0
KWA1 260333Z 15006KT 25/20 A3003 RMK A01 T02510202  RH  074%=      5-min Rain = 0
KWA1 260334Z 15006KT 25/20 A3003 RMK A01 T02500202  RH  075%=      5-min Rain = 0
KWA1 260335Z 15006KT 25/20 A3003 RMK A01 T02490202  RH  075%=      5-min Rain = 0
KWA1 260336Z 15006KT 25/20 A3003 RMK A01 T02490203  RH  076%=      5-min Rain = 0
KWA1 260337Z 15005KT 25/20 A3003 RMK A01 T02480203  RH  076%=      5-min Rain = 0
KWA1 260338Z 15005KT 25/20 A3003 RMK A01 T02470204  RH  077%=      5-min Rain = 0
KWA1 260339Z 15005KT 25/20 A3003 RMK A01 T02460204  RH  078%=      5-min Rain = 0
KWA1 260340Z 15005KT 25/20 A3004 RMK A01 T02450204  RH  078%=      5-min Rain = 0
KWA1 260341Z 15005KT 24/20 A3004 RMK A01 T02440204  RH  078%=      5-min Rain = 0
KWA1 260342Z 14005KT 24/20 A3004 RMK A01 T02430204  RH  079%=      5-min Rain = 0
KWA1 260343Z 14005KT 24/20 A3004 RMK A01 T02430204  RH  079%=      5-min Rain = 0
KWA1 260344Z 13005KT 24/20 A3004 RMK A01 T02420204  RH  079%=      5-min Rain = 0
KWA1 260345Z 13005KT 24/20 A3004 RMK A01 T02420204  RH  079%=      5-min Rain = 0
KWA1 260346Z 14005KT 24/20 A3004 RMK A01 T02420203  RH  079%=      5-min Rain = 0
KWA1 260347Z 13005KT 24/20 A3004 RMK A01 T02430203  RH  079%=      5-min Rain = 0
KWA1 260348Z 13005KT 24/20 A3004 RMK A01 T02430204  RH  079%=      5-min Rain = 0
KWA1 260349Z 14006KT 24/20 A3004 RMK A01 T02430204  RH  078%=      5-min Rain = 0
KWA1 260350Z 13006KT 24/20 A3004 RMK A01 T02430204  RH  079%=      5-min Rain = 0
KWA1 260351Z 13006KT 24/20 A3004 RMK A01 T02430204  RH  079%=      5-min Rain = 0
KWA1 260352Z 13006KT 24/21 A3004 RMK A01 T02420205  RH  079%=      5-min Rain = 0
KWA1 260353Z 13006KT 24/21 A3004 RMK A01 T02420205  RH  080%=      5-min Rain = 0
KWA1 260354Z 14006KT 24/21 A3004 RMK A01 T02410205  RH  080%=      5-min Rain = 0
KWA1 260355Z 14006KT 24/21 A3004 RMK A01 T02400205  RH  081%=      5-min Rain = 0
KWA1 260356Z 15006KT 24/20 A3005 RMK A01 T02390203  RH  080%=      5-min Rain = 0
KWA1 260357Z 15005KT 24/20 A3005 RMK A01 T02400202  RH  079%=      5-min Rain = 0
KWA1 260358Z 15005KT 24/20 A3005 RMK A01 T02410202  RH  079%=      5-min Rain = 0
KWA1 260359Z 15005KT 24/20 A3005 RMK A01 T02410202  RH  079%=      5-min Rain = 0
KWA1 260400Z 15005KT 24/20 A3005 RMK A01 T02410203  RH  080%=      5-min Rain = 0
KWA1 260401Z 15005KT 24/20 A3005 RMK A01 T02400204  RH  080%=      5-min Rain = 0
KWA1 260402Z 15005KT 24/20 A3005 RMK A01 T02390204  RH  081%=      5-min Rain = 0
KWA1 260403Z 15005KT 24/20 A3005 RMK A01 T02380204  RH  081%=      5-min Rain = 0
KWA1 260404Z 14005KT 24/20 A3005 RMK A01 T02370204  RH  082%=      5-min Rain = 0
KWA1 260405Z 14005KT 24/20 A3005 RMK A01 T02370203  RH  081%=      5-min Rain = 0
KWA1 260406Z 15005KT 24/20 A3005 RMK A01 T02370203  RH  081%=      5-min Rain = 0
KWA1 260407Z 15006KT 24/20 A3005 RMK A01 T02370203  RH  081%=      5-min Rain = 0
KWA1 260408Z 15006KT 24/20 A3005 RMK A01 T02370203  RH  082%=      5-min Rain = 0
KWA1 260409Z 15006KT 24/20 A3005 RMK A01 T02360204  RH  082%=      5-min Rain = 0
KWA1 260410Z 15006KT 24/20 A3005 RMK A01 T02360204  RH  082%=      5-min Rain = 0
KWA1 260411Z 15005KT 24/20 A3005 RMK A01 T02350203  RH  082%=      5-min Rain = 0
KWA1 260412Z 15006KT 24/20 A3005 RMK A01 T02350204  RH  082%=      5-min Rain = 0
KWA1 260413Z 14006KT 24/20 A3005 RMK A01 T02350204  RH  082%=      5-min Rain = 0
KWA1 260414Z 14007KT 24/20 A3005 RMK A01 T02350203  RH  082%=      5-min Rain = 0
KWA1 260415Z 14006KT 24/20 A3005 RMK A01 T02350203  RH  082%=      5-min Rain = 0
KWA1 260416Z 14007KT 24/20 A3005 RMK A01 T02360202  RH  081%=      5-min Rain = 0
KWA1 260417Z 14007KT 24/20 A3005 RMK A01 T02360201  RH  081%=      5-min Rain = 0
KWA1 260418Z 15006KT 24/20 A3005 RMK A01 T02370201  RH  081%=      5-min Rain = 0
KWA1 260419Z 14006KT 24/20 A3006 RMK A01 T02370202  RH  081%=      5-min Rain = 0
KWA1 260420Z 15006KT 24/20 A3006 RMK A01 T02370203  RH  081%=      5-min Rain = 0
KWA1 260421Z 15006KT 24/20 A3006 RMK A01 T02360202  RH  081%=      5-min Rain = 0
KWA1 260422Z 15006KT 24/20 A3006 RMK A01 T02350203  RH  082%=      5-min Rain = 0
KWA1 260423Z 15006KT 24/20 A3006 RMK A01 T02350203  RH  082%=      5-min Rain = 0
KWA1 260424Z 15006KT 23/20 A3006 RMK A01 T02340203  RH  083%=      5-min Rain = 0
KWA1 260425Z 15006KT 23/20 A3006 RMK A01 T02340203  RH  083%=      5-min Rain = 0
KWA1 260426Z 15006KT 23/20 A3006 RMK A01 T02330203  RH  083%=      5-min Rain = 0
KWA1 260427Z 15006KT 23/20 A3006 RMK A01 T02330203  RH  083%=      5-min Rain = 0
KWA1 260428Z 15006KT 23/20 A3006 RMK A01 T02320202  RH  083%=      5-min Rain = 0
KWA1 260429Z 15006KT 23/20 A3006 RMK A01 T02320202  RH  083%=      5-min Rain = 0
KWA1 260430Z 15006KT 23/20 A3006 RMK A01 T02320201  RH  083%=      5-min Rain = 0
KWA1 260431Z 15006KT 23/20 A3006 RMK A01 T02330201  RH  083%=      5-min Rain = 0
KWA1 260432Z 15006KT 23/20 A3007 RMK A01 T02330201  RH  082%=      5-min Rain = 0
KWA1 260433Z 15006KT 23/20 A3007 RMK A01 T02330201  RH  082%=      5-min Rain = 0
KWA1 260434Z 15006KT 23/20 A3007 RMK A01 T02330201  RH  082%=      5-min Rain = 0
KWA1 260435Z 15006KT 23/20 A3007 RMK A01 T02330201  RH  082%=      5-min Rain = 0
KWA1 260436Z 15006KT 23/20 A3007 RMK A01 T02330201  RH  082%=      5-min Rain = 0
KWA1 260437Z 15006KT 23/20 A3007 RMK A01 T02330200  RH  082%=      5-min Rain = 0
KWA1 260438Z 15006KT 23/20 A3007 RMK A01 T02330201  RH  082%=      5-min Rain = 0
KWA1 260439Z 15006KT 23/20 A3007 RMK A01 T02330201  RH  082%=      5-min Rain = 0
KWA1 260440Z 16006KT 23/20 A3007 RMK A01 T02330200  RH  082%=      5-min Rain = 0
KWA1 260441Z 16006KT 23/20 A3007 RMK A01 T02330201  RH  082%=      5-min Rain = 0
KWA1 260442Z 16006KT 23/20 A3007 RMK A01 T02320200  RH  082%=      5-min Rain = 0
KWA1 260443Z 16007KT 23/20 A3007 RMK A01 T02320200  RH  082%=      5-min Rain = 0
KWA1 260444Z 16007KT 23/20 A3007 RMK A01 T02320199  RH  082%=      5-min Rain = 0
KWA1 260445Z 16006KT 23/20 A3007 RMK A01 T02320199  RH  082%=      5-min Rain = 0
KWA1 260446Z 16007KT 23/20 A3007 RMK A01 T02320199  RH  081%=      5-min Rain = 0
KWA1 260447Z 16009KT 23/20 A3007 RMK A01 T02320198  RH  081%=      5-min Rain = 0
KWA1 260448Z 16009KT 23/20 A3007 RMK A01 T02330198  RH  081%=      5-min Rain = 0
KWA1 260449Z 16008KT 23/20 A3007 RMK A01 T02340198  RH  080%=      5-min Rain = 0
KWA1 260450Z 16009KT 23/20 A3007 RMK A01 T02340198  RH  080%=      5-min Rain = 0
KWA1 260451Z 16009KT 23/20 A3007 RMK A01 T02340197  RH  080%=      5-min Rain = 0
KWA1 260452Z 16009KT 24/20 A3007 RMK A01 T02350197  RH  079%=      5-min Rain = 0
KWA1 260453Z 16010KT 24/20 A3007 RMK A01 T02350197  RH  079%=      5-min Rain = 0
KWA1 260454Z 16010KT 24/20 A3007 RMK A01 T02360196  RH  078%=      5-min Rain = 0
KWA1 260455Z 16010KT 24/20 A3007 RMK A01 T02370197  RH  078%=      5-min Rain = 0
KWA1 260456Z 16010KT 24/20 A3007 RMK A01 T02370196  RH  078%=      5-min Rain = 0
KWA1 260457Z 16011KT 24/20 A3007 RMK A01 T02370196  RH  078%=      5-min Rain = 0
KWA1 260458Z 16010KT 24/20 A3007 RMK A01 T02370197  RH  078%=      5-min Rain = 0
KWA1 260459Z 16010KT 24/20 A3007 RMK A01 T02380197  RH  078%=      5-min Rain = 0

Page generated in 0.2528 seconds.